<?xml version='1.0' encoding='UTF-8'?><gpx version="1.1" creator="JPX - https://github.com/jenetics/jpx" xmlns="http://www.topografix.com/GPX/1/1"><trk><trkseg><trkpt lat="44.16588377774846" lon="9.976969226489846"><ele>499.00000000000006</ele><time>2026-03-28T11:28:14Z</time></trkpt><trkpt lat="44.16585396612164" lon="9.97707547631099"><ele>499.0</ele><time>2026-03-28T11:30:09Z</time></trkpt><trkpt lat="44.16589385888056" lon="9.977005476392868"><ele>499.0</ele><time>2026-03-28T11:30:51Z</time></trkpt><trkpt lat="44.16582414592182" lon="9.977054728501809"><ele>499.0</ele><time>2026-03-28T11:31:59Z</time></trkpt><trkpt lat="44.165773062218335" lon="9.977110556276585"><ele>499.00000000000006</ele><time>2026-03-28T11:32:02Z</time></trkpt><trkpt lat="44.16569769350096" lon="9.977149915429404"><ele>499.0</ele><time>2026-03-28T11:32:04Z</time></trkpt><trkpt lat="44.16562389311826" lon="9.977241489787815"><ele>498.6666666666667</ele><time>2026-03-28T11:32:07Z</time></trkpt><trkpt lat="44.16557737291127" lon="9.977313585948163"><ele>498.33333333333337</ele><time>2026-03-28T11:32:09Z</time></trkpt><trkpt lat="44.16553827045675" lon="9.977384454152192"><ele>498.0</ele><time>2026-03-28T11:32:11Z</time></trkpt><trkpt lat="44.16552507519654" lon="9.977474277722504"><ele>497.66666666666663</ele><time>2026-03-28T11:32:13Z</time></trkpt><trkpt lat="44.16548714098573" lon="9.977590993400165"><ele>497.3333333333333</ele><time>2026-03-28T11:32:15Z</time></trkpt><trkpt lat="44.165445412320516" lon="9.977731419901117"><ele>497.0</ele><time>2026-03-28T11:32:17Z</time></trkpt><trkpt lat="44.165418335046134" lon="9.977838515709738"><ele>496.99999999999994</ele><time>2026-03-28T11:32:19Z</time></trkpt><trkpt lat="44.16535684852855" lon="9.977804961320938"><ele>497.0</ele><time>2026-03-28T11:32:56Z</time></trkpt><trkpt lat="44.165274576797735" lon="9.977870938922996"><ele>497.0</ele><time>2026-03-28T11:33:01Z</time></trkpt><trkpt lat="44.1652591378091" lon="9.977960662534024"><ele>497.0</ele><time>2026-03-28T11:33:14Z</time></trkpt><trkpt lat="44.16529478815222" lon="9.978053950097552"><ele>496.99999999999994</ele><time>2026-03-28T11:33:17Z</time></trkpt><trkpt lat="44.16539808166116" lon="9.978046789184528"><ele>497.0</ele><time>2026-03-28T11:34:24Z</time></trkpt><trkpt lat="44.16549283555276" lon="9.978039815282688"><ele>496.99999999999994</ele><time>2026-03-28T11:34:26Z</time></trkpt><trkpt lat="44.165561725714475" lon="9.978011065775723"><ele>497.0</ele><time>2026-03-28T11:34:28Z</time></trkpt><trkpt lat="44.16565220164155" lon="9.978015000815848"><ele>497.0</ele><time>2026-03-28T11:34:30Z</time></trkpt><trkpt lat="44.16567042188339" lon="9.978108329243375"><ele>497.0</ele><time>2026-03-28T11:34:33Z</time></trkpt><trkpt lat="44.16560927758889" lon="9.978194687536718"><ele>496.99999999999994</ele><time>2026-03-28T11:34:35Z</time></trkpt><trkpt lat="44.16554414541981" lon="9.978286070443865"><ele>497.0</ele><time>2026-03-28T11:34:37Z</time></trkpt><trkpt lat="44.16551172670616" lon="9.978377816609001"><ele>495.20000000000005</ele><time>2026-03-28T11:34:39Z</time></trkpt><trkpt lat="44.165548226171694" lon="9.978557890076617"><ele>493.40000000000003</ele><time>2026-03-28T11:34:41Z</time></trkpt><trkpt lat="44.165595143507524" lon="9.978680764087347"><ele>491.59999999999997</ele><time>2026-03-28T11:34:43Z</time></trkpt><trkpt lat="44.16567755968291" lon="9.978727179417088"><ele>489.79999999999995</ele><time>2026-03-28T11:34:46Z</time></trkpt><trkpt lat="44.16567573338722" lon="9.978841090580397"><ele>488.0</ele><time>2026-03-28T11:34:48Z</time></trkpt><trkpt lat="44.16561599626612" lon="9.978876649703336"><ele>487.99999999999994</ele><time>2026-03-28T11:34:50Z</time></trkpt><trkpt lat="44.165607097404134" lon="9.97896592037809"><ele>488.0</ele><time>2026-03-28T11:34:54Z</time></trkpt><trkpt lat="44.165646090022484" lon="9.979056232343355"><ele>488.0</ele><time>2026-03-28T11:34:56Z</time></trkpt><trkpt lat="44.16573933615228" lon="9.979037670606628"><ele>488.0</ele><time>2026-03-28T11:35:00Z</time></trkpt><trkpt lat="44.16579265909756" lon="9.97915568696152"><ele>487.99999999999994</ele><time>2026-03-28T11:35:05Z</time></trkpt><trkpt lat="44.16578592988815" lon="9.97925378171765"><ele>488.0</ele><time>2026-03-28T11:35:07Z</time></trkpt><trkpt lat="44.16579545480365" lon="9.979378381274971"><ele>481.99999999999994</ele><time>2026-03-28T11:35:09Z</time></trkpt><trkpt lat="44.16583316156884" lon="9.979456577337258"><ele>476.0</ele><time>2026-03-28T11:35:12Z</time></trkpt><trkpt lat="44.16582849037232" lon="9.979567042601017"><ele>470.0</ele><time>2026-03-28T11:35:26Z</time></trkpt><trkpt lat="44.165880532993974" lon="9.97965399859532"><ele>464.0</ele><time>2026-03-28T11:36:26Z</time></trkpt><trkpt lat="44.16591220219151" lon="9.979770157525618"><ele>457.99999999999994</ele><time>2026-03-28T11:36:29Z</time></trkpt><trkpt lat="44.16593046298016" lon="9.979867615562604"><ele>452.0</ele><time>2026-03-28T11:36:31Z</time></trkpt><trkpt lat="44.165953605430765" lon="9.97996252770065"><ele>448.20000000000005</ele><time>2026-03-28T11:36:33Z</time></trkpt><trkpt lat="44.166016969446716" lon="9.980055063022926"><ele>444.40000000000003</ele><time>2026-03-28T11:36:35Z</time></trkpt><trkpt lat="44.16608402363711" lon="9.980084973825383"><ele>440.59999999999997</ele><time>2026-03-28T11:36:37Z</time></trkpt><trkpt lat="44.16610318033424" lon="9.980202899656492"><ele>436.79999999999995</ele><time>2026-03-28T11:36:38Z</time></trkpt><trkpt lat="44.166149607749645" lon="9.980348852335688"><ele>433.0</ele><time>2026-03-28T11:36:40Z</time></trkpt><trkpt lat="44.16618201955707" lon="9.980506752287221"><ele>433.0</ele><time>2026-03-28T11:36:42Z</time></trkpt><trkpt lat="44.16625255817677" lon="9.980637383686336"><ele>432.99999999999994</ele><time>2026-03-28T11:36:44Z</time></trkpt><trkpt lat="44.166298740367644" lon="9.980719313229223"><ele>432.99999999999994</ele><time>2026-03-28T11:36:45Z</time></trkpt><trkpt lat="44.16638170934907" lon="9.980863815744982"><ele>433.0</ele><time>2026-03-28T11:36:47Z</time></trkpt><trkpt lat="44.166447457428795" lon="9.980989626613232"><ele>433.0</ele><time>2026-03-28T11:36:49Z</time></trkpt><trkpt lat="44.16650199141497" lon="9.981137187357389"><ele>430.4</ele><time>2026-03-28T11:36:51Z</time></trkpt><trkpt lat="44.16656119607099" lon="9.981257678711943"><ele>427.79999999999995</ele><time>2026-03-28T11:36:53Z</time></trkpt><trkpt lat="44.16661985223976" lon="9.981339131071366"><ele>425.2</ele><time>2026-03-28T11:36:55Z</time></trkpt><trkpt lat="44.1666900015777" lon="9.981379689531408"><ele>422.6</ele><time>2026-03-28T11:36:57Z</time></trkpt><trkpt lat="44.16679726419811" lon="9.981429952887828"><ele>420.0</ele><time>2026-03-28T11:36:59Z</time></trkpt><trkpt lat="44.166883492779604" lon="9.981467733603274"><ele>420.0</ele><time>2026-03-28T11:37:00Z</time></trkpt><trkpt lat="44.16694104396523" lon="9.981521775608877"><ele>420.0</ele><time>2026-03-28T11:37:01Z</time></trkpt><trkpt lat="44.167044366603896" lon="9.981509809612394"><ele>420.0</ele><time>2026-03-28T11:37:03Z</time></trkpt><trkpt lat="44.167090750763954" lon="9.981449152570995"><ele>420.0</ele><time>2026-03-28T11:37:05Z</time></trkpt><trkpt lat="44.167166128946235" lon="9.981497100465667"><ele>420.0</ele><time>2026-03-28T11:37:09Z</time></trkpt><trkpt lat="44.16715346790033" lon="9.981655528819902"><ele>420.0</ele><time>2026-03-28T11:37:11Z</time></trkpt><trkpt lat="44.16707683667889" lon="9.98178732728746"><ele>417.2</ele><time>2026-03-28T11:37:12Z</time></trkpt><trkpt lat="44.16704004396711" lon="9.981901133259269"><ele>414.4</ele><time>2026-03-28T11:37:13Z</time></trkpt><trkpt lat="44.167012714409154" lon="9.981996590919248"><ele>411.6</ele><time>2026-03-28T11:37:14Z</time></trkpt><trkpt lat="44.16699819990889" lon="9.982130740798635"><ele>408.8</ele><time>2026-03-28T11:37:16Z</time></trkpt><trkpt lat="44.166995989985764" lon="9.982268280953802"><ele>406.0</ele><time>2026-03-28T11:37:18Z</time></trkpt><trkpt lat="44.16701048828112" lon="9.982396002982355"><ele>406.00000000000006</ele><time>2026-03-28T11:37:20Z</time></trkpt><trkpt lat="44.16705475159125" lon="9.98246165307078"><ele>406.0</ele><time>2026-03-28T11:37:21Z</time></trkpt><trkpt lat="44.167108282315795" lon="9.982597136356695"><ele>406.0</ele><time>2026-03-28T11:37:23Z</time></trkpt><trkpt lat="44.167168545252515" lon="9.982712517742268"><ele>406.0</ele><time>2026-03-28T11:37:25Z</time></trkpt><trkpt lat="44.167219240716655" lon="9.982808389204733"><ele>406.00000000000006</ele><time>2026-03-28T11:37:27Z</time></trkpt><trkpt lat="44.167228966850686" lon="9.982901511826299"><ele>406.0</ele><time>2026-03-28T11:37:28Z</time></trkpt><trkpt lat="44.16727804135127" lon="9.983034605789689"><ele>404.00000000000006</ele><time>2026-03-28T11:37:30Z</time></trkpt><trkpt lat="44.167300363005836" lon="9.983157088143749"><ele>402.0</ele><time>2026-03-28T11:37:32Z</time></trkpt><trkpt lat="44.16736097153812" lon="9.983235834566822"><ele>400.0</ele><time>2026-03-28T11:37:34Z</time></trkpt><trkpt lat="44.16742920149554" lon="9.983339682521239"><ele>398.0</ele><time>2026-03-28T11:37:36Z</time></trkpt><trkpt lat="44.167476803363904" lon="9.983435364332074"><ele>396.00000000000006</ele><time>2026-03-28T11:37:38Z</time></trkpt><trkpt lat="44.167478664071496" lon="9.983545542430756"><ele>394.0</ele><time>2026-03-28T11:37:42Z</time></trkpt><trkpt lat="44.16756573444749" lon="9.98367236002365"><ele>392.33333333333337</ele><time>2026-03-28T11:37:45Z</time></trkpt><trkpt lat="44.16763634509775" lon="9.98369515946635"><ele>390.6666666666667</ele><time>2026-03-28T11:37:48Z</time></trkpt><trkpt lat="44.167667160738205" lon="9.983783570271434"><ele>389.0</ele><time>2026-03-28T11:37:51Z</time></trkpt><trkpt lat="44.16777661373041" lon="9.983891874046693"><ele>387.33333333333337</ele><time>2026-03-28T11:37:53Z</time></trkpt><trkpt lat="44.167831965321426" lon="9.98397303711725"><ele>385.6666666666667</ele><time>2026-03-28T11:37:54Z</time></trkpt><trkpt lat="44.16788766736448" lon="9.984016441299508"><ele>384.0</ele><time>2026-03-28T11:37:55Z</time></trkpt><trkpt lat="44.16798283587128" lon="9.984080955305274"><ele>384.0</ele><time>2026-03-28T11:37:58Z</time></trkpt><trkpt lat="44.16807322590269" lon="9.984116757761292"><ele>384.0</ele><time>2026-03-28T11:38:02Z</time></trkpt><trkpt lat="44.16816640722779" lon="9.984218250811399"><ele>384.0</ele><time>2026-03-28T11:38:04Z</time></trkpt><trkpt lat="44.168254045889945" lon="9.984238473903135"><ele>384.0</ele><time>2026-03-28T11:38:50Z</time></trkpt><trkpt lat="44.16833991695504" lon="9.984333442310302"><ele>384.0</ele><time>2026-03-28T11:38:52Z</time></trkpt><trkpt lat="44.16840304279316" lon="9.984410678589036"><ele>382.0</ele><time>2026-03-28T11:38:54Z</time></trkpt><trkpt lat="44.16846655759045" lon="9.98448452942589"><ele>380.0</ele><time>2026-03-28T11:38:56Z</time></trkpt><trkpt lat="44.16855512765782" lon="9.984523713377333"><ele>378.0</ele><time>2026-03-28T11:38:58Z</time></trkpt><trkpt lat="44.168604112798974" lon="9.98459088124037"><ele>376.0</ele><time>2026-03-28T11:39:00Z</time></trkpt><trkpt lat="44.168707885211845" lon="9.984649717135914"><ele>374.0</ele><time>2026-03-28T11:39:02Z</time></trkpt><trkpt lat="44.16878485302228" lon="9.984680436635191"><ele>372.0</ele><time>2026-03-28T11:39:04Z</time></trkpt><trkpt lat="44.16884016428296" lon="9.984756024313286"><ele>372.0</ele><time>2026-03-28T11:39:06Z</time></trkpt><trkpt lat="44.168911357435285" lon="9.984777539959634"><ele>372.0</ele><time>2026-03-28T11:39:08Z</time></trkpt><trkpt lat="44.1689749140454" lon="9.98483039493954"><ele>372.0</ele><time>2026-03-28T11:39:10Z</time></trkpt><trkpt lat="44.16907221092683" lon="9.984852574005435"><ele>372.0</ele><time>2026-03-28T11:39:13Z</time></trkpt><trkpt lat="44.169178228474145" lon="9.984944108575577"><ele>372.0</ele><time>2026-03-28T11:39:15Z</time></trkpt><trkpt lat="44.16929007108301" lon="9.984979591143786"><ele>367.0</ele><time>2026-03-28T11:39:17Z</time></trkpt><trkpt lat="44.16937482102346" lon="9.985044240863001"><ele>362.0</ele><time>2026-03-28T11:39:19Z</time></trkpt><trkpt lat="44.16944287174456" lon="9.98507942358602"><ele>357.0</ele><time>2026-03-28T11:39:21Z</time></trkpt><trkpt lat="44.1695060661906" lon="9.98511033587408"><ele>352.0</ele><time>2026-03-28T11:39:23Z</time></trkpt><trkpt lat="44.16957913699974" lon="9.985145468748192"><ele>347.0</ele><time>2026-03-28T11:39:25Z</time></trkpt><trkpt lat="44.16965698839501" lon="9.985189532043453"><ele>342.0</ele><time>2026-03-28T11:39:27Z</time></trkpt><trkpt lat="44.16972475006274" lon="9.985186400381009"><ele>342.0</ele><time>2026-03-28T11:39:29Z</time></trkpt><trkpt lat="44.16980427734138" lon="9.985178218850935"><ele>342.0</ele><time>2026-03-28T11:39:31Z</time></trkpt><trkpt lat="44.16988123519167" lon="9.98515000182226"><ele>342.0</ele><time>2026-03-28T11:39:38Z</time></trkpt><trkpt lat="44.16995723586967" lon="9.98517110755618"><ele>342.0</ele><time>2026-03-28T11:39:45Z</time></trkpt><trkpt lat="44.17002716037927" lon="9.98516615497141"><ele>342.0</ele><time>2026-03-28T11:39:47Z</time></trkpt><trkpt lat="44.17009847090057" lon="9.985138551613986"><ele>342.0</ele><time>2026-03-28T11:39:49Z</time></trkpt><trkpt lat="44.17018472498189" lon="9.985100763549749"><ele>341.6666666666667</ele><time>2026-03-28T11:39:51Z</time></trkpt><trkpt lat="44.170270246571235" lon="9.985074016278555"><ele>341.3333333333333</ele><time>2026-03-28T11:39:53Z</time></trkpt><trkpt lat="44.17033517394667" lon="9.985070164770745"><ele>341.0</ele><time>2026-03-28T11:39:55Z</time></trkpt><trkpt lat="44.17043499319213" lon="9.98502670583733"><ele>340.66666666666663</ele><time>2026-03-28T11:39:57Z</time></trkpt><trkpt lat="44.17051198283794" lon="9.985012092983945"><ele>340.3333333333333</ele><time>2026-03-28T11:39:59Z</time></trkpt><trkpt lat="44.17057447885612" lon="9.985026881773015"><ele>340.0</ele><time>2026-03-28T11:40:01Z</time></trkpt><trkpt lat="44.17064541794482" lon="9.984990670299315"><ele>338.66666666666663</ele><time>2026-03-28T11:40:03Z</time></trkpt><trkpt lat="44.17068904297355" lon="9.984898057915888"><ele>337.3333333333333</ele><time>2026-03-28T11:40:06Z</time></trkpt><trkpt lat="44.17068027828867" lon="9.984748483716357"><ele>336.0</ele><time>2026-03-28T11:40:08Z</time></trkpt><trkpt lat="44.17070602616136" lon="9.984630152187778"><ele>334.6666666666667</ele><time>2026-03-28T11:40:10Z</time></trkpt><trkpt lat="44.17073261311502" lon="9.984496071620493"><ele>333.33333333333337</ele><time>2026-03-28T11:40:12Z</time></trkpt><trkpt lat="44.17079881580234" lon="9.984494032561422"><ele>332.0</ele><time>2026-03-28T11:40:16Z</time></trkpt><trkpt lat="44.170862166603364" lon="9.984517627623084"><ele>332.0</ele><time>2026-03-28T11:40:31Z</time></trkpt><trkpt lat="44.17097035917536" lon="9.984539535103131"><ele>332.0</ele><time>2026-03-28T11:40:34Z</time></trkpt><trkpt lat="44.17107566240547" lon="9.984501148059788"><ele>332.0</ele><time>2026-03-28T11:40:36Z</time></trkpt><trkpt lat="44.17116295201203" lon="9.984464453691034"><ele>332.0</ele><time>2026-03-28T11:40:38Z</time></trkpt><trkpt lat="44.17123975375418" lon="9.984449257961558"><ele>332.0</ele><time>2026-03-28T11:40:41Z</time></trkpt><trkpt lat="44.171316645280214" lon="9.984381889440728"><ele>332.0</ele><time>2026-03-28T11:40:43Z</time></trkpt><trkpt lat="44.17138154958216" lon="9.984279218651553"><ele>332.0</ele><time>2026-03-28T11:40:45Z</time></trkpt><trkpt lat="44.171422248629455" lon="9.984210174794914"><ele>332.0</ele><time>2026-03-28T11:40:46Z</time></trkpt><trkpt lat="44.17146567065085" lon="9.984139348265703"><ele>332.0</ele><time>2026-03-28T11:40:47Z</time></trkpt><trkpt lat="44.1714899845083" lon="9.98404058804993"><ele>332.0</ele><time>2026-03-28T11:40:49Z</time></trkpt><trkpt lat="44.17150323018136" lon="9.983927888426441"><ele>332.0</ele><time>2026-03-28T11:40:51Z</time></trkpt><trkpt lat="44.17152121963086" lon="9.983806236992775"><ele>329.33333333333337</ele><time>2026-03-28T11:40:53Z</time></trkpt><trkpt lat="44.17158236806689" lon="9.983749854517715"><ele>326.6666666666667</ele><time>2026-03-28T11:40:55Z</time></trkpt><trkpt lat="44.17163527941204" lon="9.98365337532927"><ele>324.0</ele><time>2026-03-28T11:40:57Z</time></trkpt><trkpt lat="44.17170765669471" lon="9.983562106394274"><ele>321.3333333333333</ele><time>2026-03-28T11:40:59Z</time></trkpt><trkpt lat="44.17176058659689" lon="9.98349786592587"><ele>318.66666666666663</ele><time>2026-03-28T11:41:01Z</time></trkpt><trkpt lat="44.171819598332114" lon="9.983452299739671"><ele>316.0</ele><time>2026-03-28T11:41:03Z</time></trkpt><trkpt lat="44.17186966022159" lon="9.983579670421765"><ele>316.00000000000006</ele><time>2026-03-28T11:41:06Z</time></trkpt><trkpt lat="44.17193998373115" lon="9.983606874884206"><ele>316.0</ele><time>2026-03-28T11:41:10Z</time></trkpt><trkpt lat="44.1719955269622" lon="9.983660372002163"><ele>316.0</ele><time>2026-03-28T11:41:14Z</time></trkpt><trkpt lat="44.172058977960305" lon="9.98368800696652"><ele>316.0</ele><time>2026-03-28T11:41:17Z</time></trkpt><trkpt lat="44.17212260779899" lon="9.983684581894632"><ele>316.0</ele><time>2026-03-28T11:41:19Z</time></trkpt><trkpt lat="44.17218977466766" lon="9.983665136175121"><ele>316.00000000000006</ele><time>2026-03-28T11:41:22Z</time></trkpt><trkpt lat="44.17229239259254" lon="9.983653066201839"><ele>316.0</ele><time>2026-03-28T11:41:26Z</time></trkpt><trkpt lat="44.17236742381798" lon="9.983638419302624"><ele>310.5714285714286</ele><time>2026-03-28T11:41:30Z</time></trkpt><trkpt lat="44.1724429326735" lon="9.983611493454415"><ele>305.14285714285717</ele><time>2026-03-28T11:41:33Z</time></trkpt><trkpt lat="44.1725105951587" lon="9.98357660737864"><ele>299.7142857142857</ele><time>2026-03-28T11:41:36Z</time></trkpt><trkpt lat="44.17257866298102" lon="9.98355383771184"><ele>294.28571428571433</ele><time>2026-03-28T11:41:38Z</time></trkpt><trkpt lat="44.172638015715975" lon="9.98351050960848"><ele>288.8571428571429</ele><time>2026-03-28T11:41:40Z</time></trkpt><trkpt lat="44.172696523789625" lon="9.98345768266681"><ele>283.42857142857144</ele><time>2026-03-28T11:41:43Z</time></trkpt><trkpt lat="44.17276718231502" lon="9.983515490417467"><ele>278.0</ele><time>2026-03-28T11:41:45Z</time></trkpt><trkpt lat="44.17284882616547" lon="9.983451243491624"><ele>283.5</ele><time>2026-03-28T11:41:48Z</time></trkpt><trkpt lat="44.17288751996963" lon="9.983342288106062"><ele>289.0</ele><time>2026-03-28T11:41:51Z</time></trkpt><trkpt lat="44.17292377113764" lon="9.983242750511065"><ele>294.5</ele><time>2026-03-28T11:41:52Z</time></trkpt><trkpt lat="44.17293385699824" lon="9.98313869951603"><ele>300.0</ele><time>2026-03-28T11:41:55Z</time></trkpt><trkpt lat="44.17300322905557" lon="9.983018855877308"><ele>305.5</ele><time>2026-03-28T11:41:57Z</time></trkpt><trkpt lat="44.17302766673657" lon="9.982911263304203"><ele>311.0</ele><time>2026-03-28T11:41:59Z</time></trkpt><trkpt lat="44.17301998410163" lon="9.982809815003133"><ele>311.0</ele><time>2026-03-28T11:42:01Z</time></trkpt><trkpt lat="44.17296869950753" lon="9.982689883083781"><ele>311.0</ele><time>2026-03-28T11:42:04Z</time></trkpt><trkpt lat="44.17297092776939" lon="9.982586834640227"><ele>311.0</ele><time>2026-03-28T11:42:07Z</time></trkpt><trkpt lat="44.17308589476959" lon="9.982526764478667"><ele>311.0</ele><time>2026-03-28T11:42:37Z</time></trkpt><trkpt lat="44.173152651363196" lon="9.982549479339427"><ele>311.0</ele><time>2026-03-28T11:42:39Z</time></trkpt><trkpt lat="44.17321690002353" lon="9.982492129606625"><ele>311.0</ele><time>2026-03-28T11:42:41Z</time></trkpt><trkpt lat="44.17332287310163" lon="9.982453404373693"><ele>310.0</ele><time>2026-03-28T11:42:44Z</time></trkpt><trkpt lat="44.1734169089916" lon="9.982384065027553"><ele>309.0</ele><time>2026-03-28T11:42:46Z</time></trkpt><trkpt lat="44.1734856466362" lon="9.9823227701703"><ele>308.0</ele><time>2026-03-28T11:42:48Z</time></trkpt><trkpt lat="44.17354982248939" lon="9.982351786581852"><ele>307.0</ele><time>2026-03-28T11:42:53Z</time></trkpt><trkpt lat="44.173536459824106" lon="9.982466286762925"><ele>306.0</ele><time>2026-03-28T11:42:55Z</time></trkpt><trkpt lat="44.17351778671182" lon="9.982563724552936"><ele>305.0</ele><time>2026-03-28T11:42:57Z</time></trkpt><trkpt lat="44.17353620310168" lon="9.982681203327735"><ele>300.6666666666667</ele><time>2026-03-28T11:42:59Z</time></trkpt><trkpt lat="44.17360271625146" lon="9.982802744573803"><ele>296.33333333333337</ele><time>2026-03-28T11:43:01Z</time></trkpt><trkpt lat="44.17369715120202" lon="9.982819797197939"><ele>292.0</ele><time>2026-03-28T11:43:03Z</time></trkpt><trkpt lat="44.17375450039045" lon="9.982871739121224"><ele>287.6666666666667</ele><time>2026-03-28T11:43:05Z</time></trkpt><trkpt lat="44.17378119578556" lon="9.983003349719638"><ele>283.3333333333333</ele><time>2026-03-28T11:43:07Z</time></trkpt><trkpt lat="44.173838277920225" lon="9.983048564945847"><ele>279.0</ele><time>2026-03-28T11:43:09Z</time></trkpt><trkpt lat="44.17391771358094" lon="9.983065738524045"><ele>279.0</ele><time>2026-03-28T11:43:11Z</time></trkpt><trkpt lat="44.17394555443347" lon="9.983159684290628"><ele>279.0</ele><time>2026-03-28T11:43:13Z</time></trkpt><trkpt lat="44.17398266705504" lon="9.983240690584012"><ele>279.0</ele><time>2026-03-28T11:43:14Z</time></trkpt><trkpt lat="44.17403370733969" lon="9.983325685800494"><ele>279.0</ele><time>2026-03-28T11:43:17Z</time></trkpt><trkpt lat="44.17413855342762" lon="9.983300392632719"><ele>279.0</ele><time>2026-03-28T11:43:20Z</time></trkpt><trkpt lat="44.17419944119455" lon="9.98325324207483"><ele>279.0</ele><time>2026-03-28T11:43:22Z</time></trkpt><trkpt lat="44.17426360351733" lon="9.983246437001593"><ele>280.3333333333333</ele><time>2026-03-28T11:43:25Z</time></trkpt><trkpt lat="44.17434745774347" lon="9.983195267722516"><ele>281.6666666666667</ele><time>2026-03-28T11:43:27Z</time></trkpt><trkpt lat="44.17443037800617" lon="9.9832674367485"><ele>283.0</ele><time>2026-03-28T11:43:29Z</time></trkpt><trkpt lat="44.17448388937419" lon="9.98320378416766"><ele>284.33333333333337</ele><time>2026-03-28T11:43:31Z</time></trkpt><trkpt lat="44.17458609810418" lon="9.98317065892983"><ele>285.6666666666667</ele><time>2026-03-28T11:43:33Z</time></trkpt><trkpt lat="44.17464640636419" lon="9.983203056399331"><ele>287.0</ele><time>2026-03-28T11:43:35Z</time></trkpt><trkpt lat="44.17469352573268" lon="9.983359049395567"><ele>280.83333333333337</ele><time>2026-03-28T11:43:38Z</time></trkpt><trkpt lat="44.17476670715702" lon="9.98346838522893"><ele>274.6666666666667</ele><time>2026-03-28T11:43:40Z</time></trkpt><trkpt lat="44.174765046805035" lon="9.983597158968127"><ele>268.5</ele><time>2026-03-28T11:43:42Z</time></trkpt><trkpt lat="44.174777815490835" lon="9.983748334990803"><ele>262.3333333333333</ele><time>2026-03-28T11:43:44Z</time></trkpt><trkpt lat="44.1747692155883" lon="9.983851781671689"><ele>256.16666666666663</ele><time>2026-03-28T11:43:46Z</time></trkpt><trkpt lat="44.17477641961648" lon="9.983943167199701"><ele>250.0</ele><time>2026-03-28T11:43:49Z</time></trkpt><trkpt lat="44.17483453839731" lon="9.983995970955295"><ele>252.83333333333331</ele><time>2026-03-28T11:43:54Z</time></trkpt><trkpt lat="44.17492088901824" lon="9.983983771697643"><ele>255.66666666666666</ele><time>2026-03-28T11:43:57Z</time></trkpt><trkpt lat="44.174979401222245" lon="9.983901715705224"><ele>258.5</ele><time>2026-03-28T11:44:00Z</time></trkpt><trkpt lat="44.17503146072469" lon="9.98382182061417"><ele>261.3333333333333</ele><time>2026-03-28T11:44:03Z</time></trkpt><trkpt lat="44.175103045876234" lon="9.98373545041619"><ele>264.1666666666667</ele><time>2026-03-28T11:44:06Z</time></trkpt><trkpt lat="44.17515099089233" lon="9.983642406642286"><ele>267.0</ele><time>2026-03-28T11:44:08Z</time></trkpt><trkpt lat="44.17518990724941" lon="9.983573227788485"><ele>267.0</ele><time>2026-03-28T11:44:10Z</time></trkpt><trkpt lat="44.175253077289284" lon="9.983484648180827"><ele>267.0</ele><time>2026-03-28T11:44:59Z</time></trkpt><trkpt lat="44.175310685598966" lon="9.983393640907742"><ele>267.0</ele><time>2026-03-28T11:45:01Z</time></trkpt><trkpt lat="44.17536578969599" lon="9.983344379378366"><ele>267.0</ele><time>2026-03-28T11:45:03Z</time></trkpt><trkpt lat="44.175427046993256" lon="9.983316529384165"><ele>267.0</ele><time>2026-03-28T11:45:05Z</time></trkpt><trkpt lat="44.1755122792336" lon="9.983330323861306"><ele>267.0</ele><time>2026-03-28T11:45:07Z</time></trkpt><trkpt lat="44.17558191992435" lon="9.983307827130107"><ele>267.0</ele><time>2026-03-28T11:45:09Z</time></trkpt><trkpt lat="44.175666560118735" lon="9.98334420589693"><ele>267.0</ele><time>2026-03-28T11:45:11Z</time></trkpt><trkpt lat="44.175755206669834" lon="9.983390729101762"><ele>267.0</ele><time>2026-03-28T11:45:13Z</time></trkpt><trkpt lat="44.175677847500786" lon="9.983438096171323"><ele>267.0</ele><time>2026-03-28T11:45:17Z</time></trkpt><trkpt lat="44.17556613627772" lon="9.983479373088352"><ele>267.0</ele><time>2026-03-28T11:45:19Z</time></trkpt><trkpt lat="44.17548902611159" lon="9.983533522153879"><ele>267.0</ele><time>2026-03-28T11:45:21Z</time></trkpt><trkpt lat="44.175471059248984" lon="9.983675581258929"><ele>267.0</ele><time>2026-03-28T11:45:23Z</time></trkpt><trkpt lat="44.17549883567384" lon="9.983765879224782"><ele>267.0</ele><time>2026-03-28T11:45:24Z</time></trkpt><trkpt lat="44.17548250356849" lon="9.983919777610385"><ele>267.0</ele><time>2026-03-28T11:45:26Z</time></trkpt><trkpt lat="44.17547609789335" lon="9.9840180637962"><ele>267.0</ele><time>2026-03-28T11:45:28Z</time></trkpt><trkpt lat="44.17538242626759" lon="9.984108288772525"><ele>261.0</ele><time>2026-03-28T11:45:31Z</time></trkpt><trkpt lat="44.17535643878159" lon="9.984240388729638"><ele>255.0</ele><time>2026-03-28T11:45:33Z</time></trkpt><trkpt lat="44.17534293019199" lon="9.984376990467474"><ele>249.0</ele><time>2026-03-28T11:45:34Z</time></trkpt><trkpt lat="44.17530418357111" lon="9.98451238472325"><ele>243.0</ele><time>2026-03-28T11:45:35Z</time></trkpt><trkpt lat="44.17528026816179" lon="9.984625877451522"><ele>237.0</ele><time>2026-03-28T11:45:36Z</time></trkpt><trkpt lat="44.175305517849765" lon="9.984755691326543"><ele>237.0</ele><time>2026-03-28T11:45:37Z</time></trkpt><trkpt lat="44.17533294499508" lon="9.984865307189528"><ele>237.0</ele><time>2026-03-28T11:45:38Z</time></trkpt><trkpt lat="44.17532575098748" lon="9.984977499328759"><ele>237.0</ele><time>2026-03-28T11:45:40Z</time></trkpt><trkpt lat="44.17525673181093" lon="9.985046579856487"><ele>237.0</ele><time>2026-03-28T11:45:42Z</time></trkpt><trkpt lat="44.175183474659526" lon="9.985082770765466"><ele>237.0</ele><time>2026-03-28T11:45:43Z</time></trkpt><trkpt lat="44.17506868901107" lon="9.985113318171283"><ele>237.0</ele><time>2026-03-28T11:45:45Z</time></trkpt><trkpt lat="44.174968329615986" lon="9.985112765457636"><ele>234.39999999999998</ele><time>2026-03-28T11:45:47Z</time></trkpt><trkpt lat="44.1748913214648" lon="9.985090028499545"><ele>231.79999999999998</ele><time>2026-03-28T11:45:49Z</time></trkpt><trkpt lat="44.174806528277536" lon="9.984992811278337"><ele>229.2</ele><time>2026-03-28T11:45:51Z</time></trkpt><trkpt lat="44.17468251831253" lon="9.985000926755417"><ele>226.6</ele><time>2026-03-28T11:45:53Z</time></trkpt><trkpt lat="44.174581166924796" lon="9.984938229449414"><ele>224.0</ele><time>2026-03-28T11:45:55Z</time></trkpt><trkpt lat="44.174517682756665" lon="9.984889450035308"><ele>224.0</ele><time>2026-03-28T11:45:56Z</time></trkpt><trkpt lat="44.17446162541861" lon="9.98484731770147"><ele>223.99999999999997</ele><time>2026-03-28T11:45:57Z</time></trkpt><trkpt lat="44.17438691366233" lon="9.984812183242605"><ele>223.99999999999997</ele><time>2026-03-28T11:45:58Z</time></trkpt><trkpt lat="44.17427142603424" lon="9.984745338625798"><ele>224.0</ele><time>2026-03-28T11:46:00Z</time></trkpt><trkpt lat="44.17419688257529" lon="9.984694451503996"><ele>224.0</ele><time>2026-03-28T11:46:01Z</time></trkpt><trkpt lat="44.17409163804917" lon="9.984620791051329"><ele>225.79999999999998</ele><time>2026-03-28T11:46:03Z</time></trkpt><trkpt lat="44.174003863208334" lon="9.984561578750997"><ele>227.59999999999997</ele><time>2026-03-28T11:46:05Z</time></trkpt><trkpt lat="44.17389055387216" lon="9.984583641762631"><ele>229.4</ele><time>2026-03-28T11:46:07Z</time></trkpt><trkpt lat="44.173804272221275" lon="9.984563936924115"><ele>231.2</ele><time>2026-03-28T11:46:09Z</time></trkpt><trkpt lat="44.17376591636125" lon="9.984366288303816"><ele>233.0</ele><time>2026-03-28T11:46:11Z</time></trkpt><trkpt lat="44.173710794707034" lon="9.984304232628132"><ele>233.00000000000003</ele><time>2026-03-28T11:46:13Z</time></trkpt><trkpt lat="44.17366067499152" lon="9.984209408393781"><ele>233.0</ele><time>2026-03-28T11:46:15Z</time></trkpt><trkpt lat="44.17359373194526" lon="9.9841941675026"><ele>233.0</ele><time>2026-03-28T11:46:16Z</time></trkpt><trkpt lat="44.17356582534089" lon="9.98430539853657"><ele>233.0</ele><time>2026-03-28T11:46:18Z</time></trkpt><trkpt lat="44.17354605811518" lon="9.984405985507248"><ele>233.00000000000003</ele><time>2026-03-28T11:46:19Z</time></trkpt><trkpt lat="44.17352719537248" lon="9.984511855016518"><ele>233.0</ele><time>2026-03-28T11:46:20Z</time></trkpt><trkpt lat="44.173447844165544" lon="9.98450774975724"><ele>233.00000000000003</ele><time>2026-03-28T11:46:27Z</time></trkpt><trkpt lat="44.173357027221215" lon="9.984566450561205"><ele>233.0</ele><time>2026-03-28T11:46:29Z</time></trkpt><trkpt lat="44.173306856868855" lon="9.984662051205552"><ele>233.0</ele><time>2026-03-28T11:46:32Z</time></trkpt><trkpt lat="44.173276099377695" lon="9.984762360725194"><ele>233.0</ele><time>2026-03-28T11:46:34Z</time></trkpt><trkpt lat="44.17321720927105" lon="9.984843880446736"><ele>233.00000000000003</ele><time>2026-03-28T11:46:36Z</time></trkpt><trkpt lat="44.17315013471112" lon="9.984927175909654"><ele>233.0</ele><time>2026-03-28T11:46:38Z</time></trkpt><trkpt lat="44.17312679345793" lon="9.985030100373555"><ele>233.0</ele><time>2026-03-28T11:46:40Z</time></trkpt><trkpt lat="44.17312805956024" lon="9.985118801070856"><ele>233.0</ele><time>2026-03-28T11:46:44Z</time></trkpt><trkpt lat="44.17314106068569" lon="9.985206903352921"><ele>233.0</ele><time>2026-03-28T11:47:49Z</time></trkpt><trkpt lat="44.173191585828754" lon="9.985132247607877"><ele>233.0</ele><time>2026-03-28T11:47:50Z</time></trkpt><trkpt lat="44.1732408767624" lon="9.985075951898057"><ele>233.0</ele><time>2026-03-28T11:47:51Z</time></trkpt><trkpt lat="44.17330492140627" lon="9.985004870429263"><ele>233.0</ele><time>2026-03-28T11:47:53Z</time></trkpt><trkpt lat="44.17339671474031" lon="9.985034316403533"><ele>233.0</ele><time>2026-03-28T11:47:55Z</time></trkpt><trkpt lat="44.173471864144695" lon="9.985014722468856"><ele>233.0</ele><time>2026-03-28T11:49:18Z</time></trkpt><trkpt lat="44.17351488013669" lon="9.985080909812055"><ele>233.0</ele><time>2026-03-28T11:49:41Z</time></trkpt><trkpt lat="44.173487985762165" lon="9.98498239885346"><ele>233.0</ele><time>2026-03-28T11:50:14Z</time></trkpt><trkpt lat="44.173503589678106" lon="9.985074085365538"><ele>233.0</ele><time>2026-03-28T11:50:59.999Z</time></trkpt><trkpt lat="44.173577673024944" lon="9.985100472821081"><ele>233.0</ele><time>2026-03-28T11:51:16.999Z</time></trkpt><trkpt lat="44.173635632783245" lon="9.985044652042323"><ele>233.0</ele><time>2026-03-28T11:51:32.999Z</time></trkpt><trkpt lat="44.17369880716727" lon="9.985073638279411"><ele>233.0</ele><time>2026-03-28T11:53:19Z</time></trkpt><trkpt lat="44.173751997362245" lon="9.985200960170278"><ele>232.50000000000003</ele><time>2026-03-28T11:55:02Z</time></trkpt><trkpt lat="44.173815730726844" lon="9.985249388561497"><ele>232.0</ele><time>2026-03-28T11:55:04Z</time></trkpt><trkpt lat="44.17387338862352" lon="9.98528814547026"><ele>231.5</ele><time>2026-03-28T11:55:06Z</time></trkpt><trkpt lat="44.173936145118645" lon="9.985377012813354"><ele>231.0</ele><time>2026-03-28T11:55:09Z</time></trkpt><trkpt lat="44.1739583173595" lon="9.985472517640565"><ele>230.50000000000003</ele><time>2026-03-28T11:55:11Z</time></trkpt><trkpt lat="44.17399798141282" lon="9.985567246036823"><ele>230.0</ele><time>2026-03-28T11:55:13Z</time></trkpt><trkpt lat="44.17404258974384" lon="9.985707047268992"><ele>230.00000000000003</ele><time>2026-03-28T11:55:15Z</time></trkpt><trkpt lat="44.17413591854154" lon="9.985760183390784"><ele>230.0</ele><time>2026-03-28T11:55:17Z</time></trkpt><trkpt lat="44.17419462812953" lon="9.985804593166272"><ele>230.0</ele><time>2026-03-28T11:55:19Z</time></trkpt><trkpt lat="44.17417310804993" lon="9.985895959775831"><ele>230.0</ele><time>2026-03-28T11:55:27Z</time></trkpt><trkpt lat="44.17414572229687" lon="9.986000694165346"><ele>230.00000000000003</ele><time>2026-03-28T11:55:30Z</time></trkpt><trkpt lat="44.17413949523271" lon="9.986118693323299"><ele>230.0</ele><time>2026-03-28T11:57:25Z</time></trkpt><trkpt lat="44.174201908788596" lon="9.986197072592384"><ele>233.50000000000003</ele><time>2026-03-28T11:57:42Z</time></trkpt><trkpt lat="44.174265626078025" lon="9.986187294316844"><ele>237.0</ele><time>2026-03-28T11:58:11Z</time></trkpt><trkpt lat="44.17432979853106" lon="9.986228461880284"><ele>240.5</ele><time>2026-03-28T11:58:29Z</time></trkpt><trkpt lat="44.17433341617965" lon="9.986333910963225"><ele>244.0</ele><time>2026-03-28T11:58:33Z</time></trkpt><trkpt lat="44.174290744637844" lon="9.986449155284685"><ele>247.50000000000003</ele><time>2026-03-28T11:58:35Z</time></trkpt><trkpt lat="44.17423531503796" lon="9.986568076459779"><ele>251.0</ele><time>2026-03-28T11:58:37Z</time></trkpt><trkpt lat="44.174301640138346" lon="9.986712425938178"><ele>254.0</ele><time>2026-03-28T11:58:39Z</time></trkpt><trkpt lat="44.17431612803074" lon="9.986864713780982"><ele>257.0</ele><time>2026-03-28T11:58:41Z</time></trkpt><trkpt lat="44.17426530493784" lon="9.986965648652362"><ele>260.0</ele><time>2026-03-28T11:58:44Z</time></trkpt><trkpt lat="44.17417282494918" lon="9.986955665769765"><ele>263.0</ele><time>2026-03-28T12:01:26Z</time></trkpt><trkpt lat="44.17410884295963" lon="9.98693422299024"><ele>266.0</ele><time>2026-03-28T12:01:28Z</time></trkpt><trkpt lat="44.17399434788603" lon="9.986917710180446"><ele>270.6666666666667</ele><time>2026-03-28T12:01:30Z</time></trkpt><trkpt lat="44.17392078509328" lon="9.986886387589712"><ele>275.33333333333337</ele><time>2026-03-28T12:01:31Z</time></trkpt><trkpt lat="44.17384398193397" lon="9.986870429617685"><ele>280.0</ele><time>2026-03-28T12:01:32Z</time></trkpt><trkpt lat="44.1737654697987" lon="9.986825864068647"><ele>284.6666666666667</ele><time>2026-03-28T12:01:33Z</time></trkpt><trkpt lat="44.173667072755066" lon="9.98675434749561"><ele>289.3333333333333</ele><time>2026-03-28T12:01:35Z</time></trkpt><trkpt lat="44.17357569759605" lon="9.98671139120336"><ele>294.0</ele><time>2026-03-28T12:01:37Z</time></trkpt><trkpt lat="44.1735000255502" lon="9.986678376039173"><ele>294.0</ele><time>2026-03-28T12:01:40Z</time></trkpt><trkpt lat="44.17342162665981" lon="9.986648517457933"><ele>294.0</ele><time>2026-03-28T12:02:34Z</time></trkpt><trkpt lat="44.17348252769564" lon="9.986768153293317"><ele>294.0</ele><time>2026-03-28T12:02:37Z</time></trkpt><trkpt lat="44.17354222198065" lon="9.986848456120855"><ele>294.0</ele><time>2026-03-28T12:02:38Z</time></trkpt><trkpt lat="44.17361722290394" lon="9.986922304013998"><ele>294.0</ele><time>2026-03-28T12:02:39Z</time></trkpt><trkpt lat="44.17365063558832" lon="9.987007942303709"><ele>294.0</ele><time>2026-03-28T12:02:40Z</time></trkpt><trkpt lat="44.17367711739946" lon="9.98709192489954"><ele>294.0</ele><time>2026-03-28T12:02:41Z</time></trkpt><trkpt lat="44.17370694706606" lon="9.987216392565657"><ele>294.0</ele><time>2026-03-28T12:02:42Z</time></trkpt><trkpt lat="44.17374045180895" lon="9.987332391059542"><ele>294.0</ele><time>2026-03-28T12:02:43Z</time></trkpt><trkpt lat="44.17378788864163" lon="9.987421052792259"><ele>294.0</ele><time>2026-03-28T12:02:44Z</time></trkpt><trkpt lat="44.17378797611635" lon="9.987537137543836"><ele>294.0</ele><time>2026-03-28T12:02:49Z</time></trkpt><trkpt lat="44.173685968512906" lon="9.987505166853355"><ele>294.0</ele><time>2026-03-28T12:02:51Z</time></trkpt><trkpt lat="44.173597538782715" lon="9.987443481956277"><ele>294.0</ele><time>2026-03-28T12:02:53Z</time></trkpt><trkpt lat="44.173549616593284" lon="9.98737914184277"><ele>294.0</ele><time>2026-03-28T12:03:44Z</time></trkpt><trkpt lat="44.173493866301165" lon="9.987285467494027"><ele>294.0</ele><time>2026-03-28T12:03:46Z</time></trkpt><trkpt lat="44.173465615710306" lon="9.987378291371494"><ele>294.0</ele><time>2026-03-28T12:03:51Z</time></trkpt><trkpt lat="44.17336989769079" lon="9.987369663789844"><ele>294.0</ele><time>2026-03-28T12:04:20Z</time></trkpt><trkpt lat="44.1733961376418" lon="9.987531487947741"><ele>294.8333333333333</ele><time>2026-03-28T12:04:23Z</time></trkpt><trkpt lat="44.173393650332436" lon="9.987632504610287"><ele>295.6666666666667</ele><time>2026-03-28T12:04:26Z</time></trkpt><trkpt lat="44.17332830598974" lon="9.987599351754156"><ele>296.5</ele><time>2026-03-28T12:04:58Z</time></trkpt><trkpt lat="44.17332419371741" lon="9.987693094447572"><ele>297.33333333333337</ele><time>2026-03-28T12:05:03Z</time></trkpt><trkpt lat="44.17324349787743" lon="9.987657264528286"><ele>298.1666666666667</ele><time>2026-03-28T12:05:26Z</time></trkpt><trkpt lat="44.17326756370084" lon="9.987792180271306"><ele>299.0</ele><time>2026-03-28T12:06:55Z</time></trkpt><trkpt lat="44.17323727644286" lon="9.987879953754867"><ele>303.0</ele><time>2026-03-28T12:06:57Z</time></trkpt><trkpt lat="44.1731777046278" lon="9.987925445194447"><ele>307.0</ele><time>2026-03-28T12:07:01Z</time></trkpt><trkpt lat="44.17311703741395" lon="9.987852100954575"><ele>311.0</ele><time>2026-03-28T12:07:04Z</time></trkpt><trkpt lat="44.17306782593184" lon="9.987918592089368"><ele>315.0</ele><time>2026-03-28T12:07:06Z</time></trkpt><trkpt lat="44.17305273974532" lon="9.988005309331044"><ele>319.0</ele><time>2026-03-28T12:07:09Z</time></trkpt><trkpt lat="44.17302252558562" lon="9.988105301123483"><ele>323.0</ele><time>2026-03-28T12:07:18Z</time></trkpt><trkpt lat="44.1729661688419" lon="9.988177823666158"><ele>327.0</ele><time>2026-03-28T12:07:21Z</time></trkpt><trkpt lat="44.17294143016398" lon="9.988263263490374"><ele>324.5</ele><time>2026-03-28T12:07:53Z</time></trkpt><trkpt lat="44.17290450977242" lon="9.988346620568013"><ele>322.0</ele><time>2026-03-28T12:07:56Z</time></trkpt><trkpt lat="44.17286634945397" lon="9.98846210223772"><ele>319.5</ele><time>2026-03-28T12:07:58Z</time></trkpt><trkpt lat="44.17279788017115" lon="9.988423707279239"><ele>317.0</ele><time>2026-03-28T12:08:02Z</time></trkpt><trkpt lat="44.17273943567602" lon="9.988468591600572"><ele>314.5</ele><time>2026-03-28T12:08:04Z</time></trkpt><trkpt lat="44.172615668274176" lon="9.98852711158937"><ele>312.0</ele><time>2026-03-28T12:08:06Z</time></trkpt><trkpt lat="44.17253205755788" lon="9.988658100960615"><ele>312.0</ele><time>2026-03-28T12:08:08Z</time></trkpt><trkpt lat="44.17247977311164" lon="9.988587635290358"><ele>312.0</ele><time>2026-03-28T12:08:10Z</time></trkpt><trkpt lat="44.17237797197041" lon="9.988595541222237"><ele>312.0</ele><time>2026-03-28T12:08:12Z</time></trkpt><trkpt lat="44.1723090715116" lon="9.988608482140089"><ele>312.0</ele><time>2026-03-28T12:08:13Z</time></trkpt><trkpt lat="44.17217706493901" lon="9.988633262435243"><ele>312.0</ele><time>2026-03-28T12:08:15Z</time></trkpt><trkpt lat="44.17210235554448" lon="9.988584626986706"><ele>316.8</ele><time>2026-03-28T12:08:18Z</time></trkpt><trkpt lat="44.17199261081254" lon="9.988535221104526"><ele>321.6</ele><time>2026-03-28T12:08:20Z</time></trkpt><trkpt lat="44.17191732470364" lon="9.988553777878993"><ele>326.40000000000003</ele><time>2026-03-28T12:08:21Z</time></trkpt><trkpt lat="44.17180275094214" lon="9.98859603360973"><ele>331.2</ele><time>2026-03-28T12:08:23Z</time></trkpt><trkpt lat="44.17171068338946" lon="9.988631819059767"><ele>336.0</ele><time>2026-03-28T12:08:25Z</time></trkpt><trkpt lat="44.171648713026705" lon="9.988610870980315"><ele>336.0</ele><time>2026-03-28T12:08:27Z</time></trkpt><trkpt lat="44.17155927771287" lon="9.988625231992838"><ele>336.0</ele><time>2026-03-28T12:08:30Z</time></trkpt><trkpt lat="44.171504047229156" lon="9.9886674200286"><ele>336.0</ele><time>2026-03-28T12:08:32Z</time></trkpt><trkpt lat="44.17136094789784" lon="9.988706618891936"><ele>336.0</ele><time>2026-03-28T12:08:33Z</time></trkpt><trkpt lat="44.17130072831754" lon="9.98876889761607"><ele>336.0</ele><time>2026-03-28T12:08:34Z</time></trkpt><trkpt lat="44.17123446841325" lon="9.98884784088508"><ele>337.4</ele><time>2026-03-28T12:08:36Z</time></trkpt><trkpt lat="44.171225637549" lon="9.988943974656468"><ele>338.8</ele><time>2026-03-28T12:08:43Z</time></trkpt><trkpt lat="44.17113662254218" lon="9.98897469537995"><ele>340.2</ele><time>2026-03-28T12:08:46Z</time></trkpt><trkpt lat="44.17106445684179" lon="9.988951502400134"><ele>341.59999999999997</ele><time>2026-03-28T12:08:50Z</time></trkpt><trkpt lat="44.17092915745682" lon="9.989015904833671"><ele>343.0</ele><time>2026-03-28T12:08:52Z</time></trkpt><trkpt lat="44.170839490710804" lon="9.989044133935504"><ele>343.0</ele><time>2026-03-28T12:08:54Z</time></trkpt><trkpt lat="44.17077495797086" lon="9.989047731432867"><ele>343.0</ele><time>2026-03-28T12:08:56Z</time></trkpt><trkpt lat="44.17068585974962" lon="9.989094416318261"><ele>343.0</ele><time>2026-03-28T12:08:58Z</time></trkpt><trkpt lat="44.17057529743946" lon="9.98914453812351"><ele>343.0</ele><time>2026-03-28T12:09:00Z</time></trkpt><trkpt lat="44.17048532187017" lon="9.98922418046135"><ele>343.0</ele><time>2026-03-28T12:09:02Z</time></trkpt><trkpt lat="44.170387912932256" lon="9.989240314870228"><ele>343.8333333333333</ele><time>2026-03-28T12:09:04Z</time></trkpt><trkpt lat="44.17031136992132" lon="9.98924722566118"><ele>344.66666666666663</ele><time>2026-03-28T12:09:06Z</time></trkpt><trkpt lat="44.17023598038662" lon="9.989248184087305"><ele>345.5</ele><time>2026-03-28T12:09:08Z</time></trkpt><trkpt lat="44.17014875420346" lon="9.989223750573935"><ele>346.3333333333333</ele><time>2026-03-28T12:09:16Z</time></trkpt><trkpt lat="44.17005015572309" lon="9.989144955703189"><ele>347.1666666666667</ele><time>2026-03-28T12:09:18Z</time></trkpt><trkpt lat="44.169962326619746" lon="9.98911271720636"><ele>348.0</ele><time>2026-03-28T12:09:20Z</time></trkpt><trkpt lat="44.16990955363788" lon="9.989166305356068"><ele>349.2</ele><time>2026-03-28T12:09:22Z</time></trkpt><trkpt lat="44.16983533069356" lon="9.989177044051077"><ele>350.4</ele><time>2026-03-28T12:09:24Z</time></trkpt><trkpt lat="44.169739756779514" lon="9.989163202620151"><ele>351.59999999999997</ele><time>2026-03-28T12:09:26Z</time></trkpt><trkpt lat="44.16964428640255" lon="9.989211719103157"><ele>352.79999999999995</ele><time>2026-03-28T12:09:29Z</time></trkpt><trkpt lat="44.16952760650831" lon="9.98925742576753"><ele>354.0</ele><time>2026-03-28T12:09:31Z</time></trkpt><trkpt lat="44.16946424995028" lon="9.989258972580808"><ele>354.0</ele><time>2026-03-28T12:09:32Z</time></trkpt><trkpt lat="44.169355161501805" lon="9.989278765818861"><ele>354.0</ele><time>2026-03-28T12:09:34Z</time></trkpt><trkpt lat="44.169284854312785" lon="9.989319594914427"><ele>354.0</ele><time>2026-03-28T12:09:36Z</time></trkpt><trkpt lat="44.16921721523931" lon="9.989441257417026"><ele>354.0</ele><time>2026-03-28T12:09:38Z</time></trkpt><trkpt lat="44.16916434776439" lon="9.989493052321784"><ele>354.0</ele><time>2026-03-28T12:09:39Z</time></trkpt><trkpt lat="44.16911022354437" lon="9.989570007796289"><ele>354.0</ele><time>2026-03-28T12:09:40Z</time></trkpt><trkpt lat="44.16905923222386" lon="9.98963993918456"><ele>356.5</ele><time>2026-03-28T12:09:41Z</time></trkpt><trkpt lat="44.16898527489439" lon="9.989692899637033"><ele>359.0</ele><time>2026-03-28T12:09:42Z</time></trkpt><trkpt lat="44.168905168236954" lon="9.989782529504062"><ele>361.5</ele><time>2026-03-28T12:09:44Z</time></trkpt><trkpt lat="44.16882355185403" lon="9.989843374646698"><ele>364.0</ele><time>2026-03-28T12:09:46Z</time></trkpt><trkpt lat="44.16876007705552" lon="9.989865859521467"><ele>366.5</ele><time>2026-03-28T12:09:47Z</time></trkpt><trkpt lat="44.16867188600162" lon="9.989917537718313"><ele>369.0</ele><time>2026-03-28T12:09:49Z</time></trkpt><trkpt lat="44.16857361920173" lon="9.989951638010206"><ele>368.3333333333333</ele><time>2026-03-28T12:09:51Z</time></trkpt><trkpt lat="44.168528021482054" lon="9.990029049084228"><ele>367.6666666666667</ele><time>2026-03-28T12:09:55Z</time></trkpt><trkpt lat="44.16847484603301" lon="9.990125255620375"><ele>367.0</ele><time>2026-03-28T12:09:57Z</time></trkpt><trkpt lat="44.168381034298925" lon="9.990118790649285"><ele>366.33333333333337</ele><time>2026-03-28T12:09:59Z</time></trkpt><trkpt lat="44.1683135208657" lon="9.99012645581896"><ele>365.6666666666667</ele><time>2026-03-28T12:10:01Z</time></trkpt><trkpt lat="44.16827082817973" lon="9.990060227093995"><ele>365.0</ele><time>2026-03-28T12:10:02Z</time></trkpt><trkpt lat="44.168190554892185" lon="9.990060005773437"><ele>365.0</ele><time>2026-03-28T12:10:04Z</time></trkpt><trkpt lat="44.16809704124878" lon="9.990118194128671"><ele>365.0</ele><time>2026-03-28T12:10:06Z</time></trkpt><trkpt lat="44.16802709670409" lon="9.990108787534028"><ele>365.0</ele><time>2026-03-28T12:10:08Z</time></trkpt><trkpt lat="44.16794855000039" lon="9.990032820632711"><ele>365.0</ele><time>2026-03-28T12:10:10Z</time></trkpt><trkpt lat="44.167864237898435" lon="9.98994728247824"><ele>365.0</ele><time>2026-03-28T12:10:12Z</time></trkpt><trkpt lat="44.16783303221025" lon="9.989851998448385"><ele>365.0</ele><time>2026-03-28T12:10:14Z</time></trkpt><trkpt lat="44.167848277578955" lon="9.98971868037021"><ele>370.0</ele><time>2026-03-28T12:10:16Z</time></trkpt><trkpt lat="44.167848422316354" lon="9.989577015378678"><ele>375.0</ele><time>2026-03-28T12:10:18Z</time></trkpt><trkpt lat="44.16788662188153" lon="9.98946877219192"><ele>380.0</ele><time>2026-03-28T12:10:20Z</time></trkpt><trkpt lat="44.167915031116145" lon="9.989355829847831"><ele>385.0</ele><time>2026-03-28T12:10:22Z</time></trkpt><trkpt lat="44.16792981407311" lon="9.989225798616276"><ele>390.0</ele><time>2026-03-28T12:10:24Z</time></trkpt><trkpt lat="44.16791068301206" lon="9.989102048658957"><ele>390.0</ele><time>2026-03-28T12:10:27Z</time></trkpt><trkpt lat="44.167857506175785" lon="9.989025413540888"><ele>390.0</ele><time>2026-03-28T12:10:29Z</time></trkpt><trkpt lat="44.16776219198358" lon="9.988980994082494"><ele>390.0</ele><time>2026-03-28T12:10:32Z</time></trkpt><trkpt lat="44.16770402226519" lon="9.989022561875741"><ele>390.0</ele><time>2026-03-28T12:10:35Z</time></trkpt><trkpt lat="44.16764055107171" lon="9.989036804578525"><ele>390.0</ele><time>2026-03-28T12:11:12Z</time></trkpt><trkpt lat="44.16759639161728" lon="9.989128548477012"><ele>390.0</ele><time>2026-03-28T12:11:15Z</time></trkpt><trkpt lat="44.167544798176" lon="9.989248017563023"><ele>390.0</ele><time>2026-03-28T12:11:17Z</time></trkpt><trkpt lat="44.16751008642044" lon="9.989332803174397"><ele>390.0</ele><time>2026-03-28T12:11:18Z</time></trkpt><trkpt lat="44.16748121918763" lon="9.989413888123563"><ele>390.0</ele><time>2026-03-28T12:11:19Z</time></trkpt><trkpt lat="44.16742596515717" lon="9.989495689747923"><ele>390.0</ele><time>2026-03-28T12:11:20Z</time></trkpt><trkpt lat="44.1673753473116" lon="9.989587075067124"><ele>390.0</ele><time>2026-03-28T12:11:22Z</time></trkpt><trkpt lat="44.167321130082414" lon="9.989643556576969"><ele>390.0</ele><time>2026-03-28T12:11:24Z</time></trkpt><trkpt lat="44.16723354249626" lon="9.989636403499002"><ele>392.5</ele><time>2026-03-28T12:11:26Z</time></trkpt><trkpt lat="44.16714250950835" lon="9.989634223340818"><ele>395.0</ele><time>2026-03-28T12:11:30Z</time></trkpt><trkpt lat="44.16706771944901" lon="9.989645954953145"><ele>397.5</ele><time>2026-03-28T12:11:32Z</time></trkpt><trkpt lat="44.16701023405013" lon="9.989707335641842"><ele>400.0</ele><time>2026-03-28T12:11:34Z</time></trkpt><trkpt lat="44.16692555660788" lon="9.98972580201935"><ele>402.5</ele><time>2026-03-28T12:11:37Z</time></trkpt><trkpt lat="44.16683807995482" lon="9.989736825855312"><ele>405.0</ele><time>2026-03-28T12:11:40Z</time></trkpt><trkpt lat="44.16676391485747" lon="9.989683014980303"><ele>405.0</ele><time>2026-03-28T12:11:44Z</time></trkpt><trkpt lat="44.16669451746393" lon="9.989701532582021"><ele>405.0</ele><time>2026-03-28T12:11:47Z</time></trkpt><trkpt lat="44.16657337223374" lon="9.98971217880979"><ele>405.0</ele><time>2026-03-28T12:11:51Z</time></trkpt><trkpt lat="44.16652114721113" lon="9.989763978050483"><ele>405.0</ele><time>2026-03-28T12:11:53Z</time></trkpt><trkpt lat="44.166465758276246" lon="9.98983615685351"><ele>405.0</ele><time>2026-03-28T12:11:55Z</time></trkpt><trkpt lat="44.16639640415851" lon="9.989859736550104"><ele>405.0</ele><time>2026-03-28T12:11:58Z</time></trkpt><trkpt lat="44.16628692679417" lon="9.989862193743479"><ele>408.3333333333333</ele><time>2026-03-28T12:12:01Z</time></trkpt><trkpt lat="44.16622720699443" lon="9.989921004748146"><ele>411.66666666666663</ele><time>2026-03-28T12:12:03Z</time></trkpt><trkpt lat="44.166173224086315" lon="9.990018460541725"><ele>415.0</ele><time>2026-03-28T12:12:06Z</time></trkpt><trkpt lat="44.16610334263584" lon="9.990007969582166"><ele>418.3333333333333</ele><time>2026-03-28T12:12:09Z</time></trkpt><trkpt lat="44.16603341689962" lon="9.990039358533153"><ele>421.66666666666663</ele><time>2026-03-28T12:12:14Z</time></trkpt><trkpt lat="44.16596704957558" lon="9.990106530054533"><ele>425.0</ele><time>2026-03-28T12:12:17Z</time></trkpt><trkpt lat="44.165912272341174" lon="9.990185752669472"><ele>425.0</ele><time>2026-03-28T12:12:20Z</time></trkpt><trkpt lat="44.16589981555264" lon="9.990274688785544"><ele>425.0</ele><time>2026-03-28T12:12:27Z</time></trkpt><trkpt lat="44.165900384649525" lon="9.990363927508898"><ele>425.0</ele><time>2026-03-28T12:13:05Z</time></trkpt><trkpt lat="44.16583041969576" lon="9.990364204568143"><ele>425.0</ele><time>2026-03-28T12:17:07Z</time></trkpt><trkpt lat="44.16576780049636" lon="9.990446502125046"><ele>425.0</ele><time>2026-03-28T12:17:10Z</time></trkpt><trkpt lat="44.165707879232066" lon="9.990513386418032"><ele>425.0</ele><time>2026-03-28T12:17:57Z</time></trkpt><trkpt lat="44.16578244217262" lon="9.990508420882412"><ele>425.0</ele><time>2026-03-28T12:18:28.999Z</time></trkpt><trkpt lat="44.16584360191546" lon="9.990533419172886"><ele>424.99999999999994</ele><time>2026-03-28T12:22:27Z</time></trkpt><trkpt lat="44.16590404281981" lon="9.99058290775792"><ele>425.0</ele><time>2026-03-28T12:22:48Z</time></trkpt><trkpt lat="44.16597947145014" lon="9.990646413795876"><ele>425.0</ele><time>2026-03-28T12:22:54Z</time></trkpt><trkpt lat="44.166067293443504" lon="9.990726591018854"><ele>425.0</ele><time>2026-03-28T12:22:57Z</time></trkpt><trkpt lat="44.16599815303896" lon="9.990697535429952"><ele>424.99999999999994</ele><time>2026-03-28T12:23:28Z</time></trkpt><trkpt lat="44.165947879596736" lon="9.990629188444819"><ele>425.0</ele><time>2026-03-28T12:23:40Z</time></trkpt><trkpt lat="44.16589626379146" lon="9.99057138845117"><ele>425.0</ele><time>2026-03-28T12:23:49Z</time></trkpt><trkpt lat="44.16583392512584" lon="9.990553823942685"><ele>425.0</ele><time>2026-03-28T12:23:56Z</time></trkpt><trkpt lat="44.16581868705615" lon="9.99046597694032"><ele>425.0</ele><time>2026-03-28T12:24:40.999Z</time></trkpt><trkpt lat="44.16574776056439" lon="9.990414020656742"><ele>425.0</ele><time>2026-03-28T12:25:05Z</time></trkpt><trkpt lat="44.16577717875204" lon="9.990503396682435"><ele>425.0</ele><time>2026-03-28T12:25:07Z</time></trkpt><trkpt lat="44.16584989129357" lon="9.990525920957666"><ele>425.0</ele><time>2026-03-28T12:25:25Z</time></trkpt><trkpt lat="44.16580298390927" lon="9.990466421177612"><ele>425.0</ele><time>2026-03-28T12:25:59Z</time></trkpt><trkpt lat="44.16577457513804" lon="9.990567638092166"><ele>425.0</ele><time>2026-03-28T12:27:39Z</time></trkpt><trkpt lat="44.16583950768623" lon="9.990528238686082"><ele>425.0</ele><time>2026-03-28T12:27:53Z</time></trkpt><trkpt lat="44.165932231309" lon="9.990563729543991"><ele>425.0</ele><time>2026-03-28T12:28:13Z</time></trkpt><trkpt lat="44.16597421645903" lon="9.990631417698125"><ele>425.0</ele><time>2026-03-28T12:28:23Z</time></trkpt><trkpt lat="44.166038413548435" lon="9.990667515562542"><ele>425.0</ele><time>2026-03-28T12:28:34Z</time></trkpt><trkpt lat="44.16609010288232" lon="9.990719150028154"><ele>425.0</ele><time>2026-03-28T12:29:12Z</time></trkpt><trkpt lat="44.166161345113956" lon="9.99077859326129"><ele>425.0</ele><time>2026-03-28T12:30:17Z</time></trkpt><trkpt lat="44.16618942625529" lon="9.990880666031535"><ele>426.66666666666663</ele><time>2026-03-28T12:30:19Z</time></trkpt><trkpt lat="44.1661793218295" lon="9.99098416325751"><ele>428.3333333333333</ele><time>2026-03-28T12:30:21Z</time></trkpt><trkpt lat="44.16621619541293" lon="9.991063581416235"><ele>430.0</ele><time>2026-03-28T12:30:23Z</time></trkpt><trkpt lat="44.1662433744989" lon="9.991153700400393"><ele>431.66666666666663</ele><time>2026-03-28T12:30:25Z</time></trkpt><trkpt lat="44.16621255669878" lon="9.991280987984746"><ele>433.3333333333333</ele><time>2026-03-28T12:30:28Z</time></trkpt><trkpt lat="44.166165589344274" lon="9.991406964308121"><ele>435.0</ele><time>2026-03-28T12:30:30Z</time></trkpt><trkpt lat="44.16609015498085" lon="9.99147935822914"><ele>435.0</ele><time>2026-03-28T12:30:32Z</time></trkpt><trkpt lat="44.16610506365891" lon="9.991605295516338"><ele>435.0</ele><time>2026-03-28T12:30:35Z</time></trkpt><trkpt lat="44.166098637518154" lon="9.991736047963624"><ele>435.0</ele><time>2026-03-28T12:30:37Z</time></trkpt><trkpt lat="44.166077843994756" lon="9.991869525998426"><ele>435.0</ele><time>2026-03-28T12:30:39Z</time></trkpt><trkpt lat="44.16607470188442" lon="9.992003552107375"><ele>435.0</ele><time>2026-03-28T12:30:42Z</time></trkpt><trkpt lat="44.1660240074226" lon="9.99211460781278"><ele>432.5</ele><time>2026-03-28T12:30:44Z</time></trkpt><trkpt lat="44.1659681974765" lon="9.99217202145848"><ele>430.0</ele><time>2026-03-28T12:30:46Z</time></trkpt><trkpt lat="44.16589158442961" lon="9.992231220935103"><ele>427.5</ele><time>2026-03-28T12:30:48Z</time></trkpt><trkpt lat="44.16581923000256" lon="9.992285843170581"><ele>425.0</ele><time>2026-03-28T12:30:50Z</time></trkpt><trkpt lat="44.16576416993347" lon="9.992344918186744"><ele>422.5</ele><time>2026-03-28T12:30:52Z</time></trkpt><trkpt lat="44.16568418788071" lon="9.992436221440752"><ele>420.0</ele><time>2026-03-28T12:30:54Z</time></trkpt><trkpt lat="44.165591521341334" lon="9.992488569306456"><ele>421.5</ele><time>2026-03-28T12:30:56Z</time></trkpt><trkpt lat="44.165487625776734" lon="9.99255673624244"><ele>423.0</ele><time>2026-03-28T12:31:17Z</time></trkpt><trkpt lat="44.165419772321364" lon="9.992564279744373"><ele>424.5</ele><time>2026-03-28T12:31:19Z</time></trkpt><trkpt lat="44.165344478473266" lon="9.99256433603716"><ele>426.0</ele><time>2026-03-28T12:31:21Z</time></trkpt><trkpt lat="44.1652774143956" lon="9.992586624719625"><ele>427.5</ele><time>2026-03-28T12:31:25Z</time></trkpt><trkpt lat="44.16521062869521" lon="9.992597998371371"><ele>429.0</ele><time>2026-03-28T12:31:28Z</time></trkpt><trkpt lat="44.165196607836265" lon="9.992708481928661"><ele>429.0</ele><time>2026-03-28T12:33:51Z</time></trkpt><trkpt lat="44.16516557440073" lon="9.99280143559449"><ele>429.0</ele><time>2026-03-28T12:33:53Z</time></trkpt><trkpt lat="44.16511351637928" lon="9.992870381664495"><ele>429.0</ele><time>2026-03-28T12:33:55Z</time></trkpt><trkpt lat="44.16504352928163" lon="9.992851028133623"><ele>429.0</ele><time>2026-03-28T12:33:57Z</time></trkpt><trkpt lat="44.164945877130094" lon="9.99281142031545"><ele>429.0</ele><time>2026-03-28T12:33:59Z</time></trkpt><trkpt lat="44.16485846610049" lon="9.992778383251029"><ele>429.0</ele><time>2026-03-28T12:34:01Z</time></trkpt><trkpt lat="44.16477242784288" lon="9.992799410829422"><ele>433.14285714285717</ele><time>2026-03-28T12:34:06Z</time></trkpt><trkpt lat="44.164704721522256" lon="9.992801929480416"><ele>437.28571428571433</ele><time>2026-03-28T12:34:08Z</time></trkpt><trkpt lat="44.16464703315" lon="9.99284111087707"><ele>441.42857142857144</ele><time>2026-03-28T12:34:17Z</time></trkpt><trkpt lat="44.16457876876403" lon="9.992859224885423"><ele>445.57142857142856</ele><time>2026-03-28T12:34:23Z</time></trkpt><trkpt lat="44.164571510386544" lon="9.992974035164929"><ele>449.7142857142857</ele><time>2026-03-28T12:35:07Z</time></trkpt><trkpt lat="44.16459959276818" lon="9.993079676019189"><ele>453.85714285714283</ele><time>2026-03-28T12:35:16Z</time></trkpt><trkpt lat="44.16454258647688" lon="9.993142617140363"><ele>458.0</ele><time>2026-03-28T12:35:20Z</time></trkpt><trkpt lat="44.164460915909665" lon="9.993145434935489"><ele>457.99999999999994</ele><time>2026-03-28T12:35:23Z</time></trkpt><trkpt lat="44.16438045396418" lon="9.993234542836033"><ele>458.0</ele><time>2026-03-28T12:36:11Z</time></trkpt><trkpt lat="44.16432443528336" lon="9.993313415338134"><ele>458.0</ele><time>2026-03-28T12:38:26Z</time></trkpt><trkpt lat="44.16435146545184" lon="9.993403014145157"><ele>458.0</ele><time>2026-03-28T12:38:46Z</time></trkpt><trkpt lat="44.164411591533074" lon="9.993511036025698"><ele>457.99999999999994</ele><time>2026-03-28T12:38:50Z</time></trkpt><trkpt lat="44.16448220479328" lon="9.99348476614399"><ele>458.0</ele><time>2026-03-28T12:38:55Z</time></trkpt><trkpt lat="44.16455433274711" lon="9.993487574023126"><ele>459.3333333333333</ele><time>2026-03-28T12:39:00Z</time></trkpt><trkpt lat="44.16462584627244" lon="9.993507339632966"><ele>460.66666666666663</ele><time>2026-03-28T12:39:18Z</time></trkpt><trkpt lat="44.16470977082471" lon="9.993510213407923"><ele>462.0</ele><time>2026-03-28T12:39:23Z</time></trkpt><trkpt lat="44.16477202216381" lon="9.993606321485904"><ele>463.33333333333337</ele><time>2026-03-28T12:39:25Z</time></trkpt><trkpt lat="44.16480651958936" lon="9.993708741843543"><ele>464.6666666666667</ele><time>2026-03-28T12:39:27Z</time></trkpt><trkpt lat="44.1648501560873" lon="9.993806898066833"><ele>466.0</ele><time>2026-03-28T12:39:28.999Z</time></trkpt><trkpt lat="44.164844318682974" lon="9.993935409004093"><ele>466.00000000000006</ele><time>2026-03-28T12:39:31Z</time></trkpt><trkpt lat="44.16482042085755" lon="9.994040919781218"><ele>466.0</ele><time>2026-03-28T12:39:33Z</time></trkpt><trkpt lat="44.164783639869974" lon="9.994144035333306"><ele>466.0</ele><time>2026-03-28T12:39:36Z</time></trkpt><trkpt lat="44.16472120229815" lon="9.994188751415418"><ele>466.0</ele><time>2026-03-28T12:39:39Z</time></trkpt><trkpt lat="44.16467141986971" lon="9.994292606451962"><ele>466.00000000000006</ele><time>2026-03-28T12:39:41Z</time></trkpt><trkpt lat="44.16470192843415" lon="9.99438766181077"><ele>466.0</ele><time>2026-03-28T12:39:43Z</time></trkpt><trkpt lat="44.16477214943066" lon="9.994403307118407"><ele>466.14285714285717</ele><time>2026-03-28T12:39:45Z</time></trkpt><trkpt lat="44.164826595887334" lon="9.99445028050308"><ele>466.2857142857142</ele><time>2026-03-28T12:39:50Z</time></trkpt><trkpt lat="44.164896078263254" lon="9.994432995411175"><ele>466.4285714285714</ele><time>2026-03-28T12:39:53Z</time></trkpt><trkpt lat="44.164944320496126" lon="9.994492141448397"><ele>466.57142857142856</ele><time>2026-03-28T12:39:55Z</time></trkpt><trkpt lat="44.16501291217853" lon="9.994490570395037"><ele>466.71428571428567</ele><time>2026-03-28T12:39:58Z</time></trkpt><trkpt lat="44.16508294323524" lon="9.994563474757426"><ele>466.8571428571428</ele><time>2026-03-28T12:40:02Z</time></trkpt><trkpt lat="44.16511924979465" lon="9.994484506319203"><ele>466.99999999999994</ele><time>2026-03-28T12:40:05Z</time></trkpt><trkpt lat="44.16520421659885" lon="9.994498659938852"><ele>466.99999999999994</ele><time>2026-03-28T12:40:08Z</time></trkpt><trkpt lat="44.16530218453057" lon="9.994527784884765"><ele>467.0</ele><time>2026-03-28T12:40:10Z</time></trkpt><trkpt lat="44.1653658919981" lon="9.994579555472283"><ele>467.0</ele><time>2026-03-28T12:40:12Z</time></trkpt><trkpt lat="44.165424556130546" lon="9.99461300152714"><ele>467.0</ele><time>2026-03-28T12:40:14Z</time></trkpt><trkpt lat="44.165514064287706" lon="9.994665928704176"><ele>466.99999999999994</ele><time>2026-03-28T12:40:16Z</time></trkpt><trkpt lat="44.16561894955158" lon="9.994723107421413"><ele>467.0</ele><time>2026-03-28T12:40:18Z</time></trkpt><trkpt lat="44.16568801731307" lon="9.994746289304997"><ele>463.66666666666663</ele><time>2026-03-28T12:40:19Z</time></trkpt><trkpt lat="44.16573273333089" lon="9.994811775475911"><ele>460.3333333333333</ele><time>2026-03-28T12:40:22Z</time></trkpt><trkpt lat="44.16576416690999" lon="9.994946593181707"><ele>457.0</ele><time>2026-03-28T12:40:25Z</time></trkpt><trkpt lat="44.16583564135878" lon="9.994945905442314"><ele>453.66666666666663</ele><time>2026-03-28T12:40:26Z</time></trkpt><trkpt lat="44.165927260814605" lon="9.994922764958561"><ele>450.3333333333333</ele><time>2026-03-28T12:40:28Z</time></trkpt><trkpt lat="44.16603034280162" lon="9.994919164185914"><ele>447.0</ele><time>2026-03-28T12:40:30Z</time></trkpt><trkpt lat="44.166104813763816" lon="9.994953045278317"><ele>447.40000000000003</ele><time>2026-03-28T12:40:32Z</time></trkpt><trkpt lat="44.16610809417311" lon="9.995059957629179"><ele>447.80000000000007</ele><time>2026-03-28T12:40:34Z</time></trkpt><trkpt lat="44.16608508881109" lon="9.995193616768441"><ele>448.2</ele><time>2026-03-28T12:40:36Z</time></trkpt><trkpt lat="44.166055518419654" lon="9.995298791076616"><ele>448.6</ele><time>2026-03-28T12:40:38Z</time></trkpt><trkpt lat="44.166035593183516" lon="9.99545048714332"><ele>449.0</ele><time>2026-03-28T12:40:41Z</time></trkpt><trkpt lat="44.16598140152717" lon="9.99557942096336"><ele>448.99999999999994</ele><time>2026-03-28T12:40:43Z</time></trkpt><trkpt lat="44.16595753948508" lon="9.995662438166672"><ele>449.0</ele><time>2026-03-28T12:40:44Z</time></trkpt><trkpt lat="44.165922275388496" lon="9.995749037601465"><ele>449.0</ele><time>2026-03-28T12:40:46Z</time></trkpt><trkpt lat="44.16584569076422" lon="9.995785487042884"><ele>449.0</ele><time>2026-03-28T12:40:48Z</time></trkpt><trkpt lat="44.16586230395325" lon="9.995939665219575"><ele>448.99999999999994</ele><time>2026-03-28T12:40:50Z</time></trkpt><trkpt lat="44.16588432897236" lon="9.996073609470564"><ele>449.0</ele><time>2026-03-28T12:40:52Z</time></trkpt><trkpt lat="44.165845967006526" lon="9.996209384195025"><ele>448.16666666666663</ele><time>2026-03-28T12:40:55Z</time></trkpt><trkpt lat="44.165792342260666" lon="9.996317044957816"><ele>447.3333333333333</ele><time>2026-03-28T12:40:57Z</time></trkpt><trkpt lat="44.16574818453695" lon="9.996390428832544"><ele>446.5</ele><time>2026-03-28T12:40:59Z</time></trkpt><trkpt lat="44.165673423874864" lon="9.99646748650242"><ele>445.66666666666663</ele><time>2026-03-28T12:41:01Z</time></trkpt><trkpt lat="44.165616709076446" lon="9.996541814628529"><ele>444.8333333333333</ele><time>2026-03-28T12:41:03Z</time></trkpt><trkpt lat="44.165555292012655" lon="9.996668750184316"><ele>444.0</ele><time>2026-03-28T12:41:06Z</time></trkpt><trkpt lat="44.16555783313094" lon="9.996791247468387"><ele>445.0</ele><time>2026-03-28T12:41:08Z</time></trkpt><trkpt lat="44.16562264796172" lon="9.996903457556927"><ele>446.0</ele><time>2026-03-28T12:41:11Z</time></trkpt><trkpt lat="44.16575207810951" lon="9.996956632039685"><ele>447.0</ele><time>2026-03-28T12:41:13Z</time></trkpt><trkpt lat="44.16579728214619" lon="9.997069795982153"><ele>448.0</ele><time>2026-03-28T12:41:16Z</time></trkpt><trkpt lat="44.16583137804553" lon="9.997232999720694"><ele>448.00000000000006</ele><time>2026-03-28T12:41:18Z</time></trkpt><trkpt lat="44.16586067618481" lon="9.997342099199772"><ele>448.0</ele><time>2026-03-28T12:41:20Z</time></trkpt><trkpt lat="44.16585676884059" lon="9.99747902497432"><ele>448.0</ele><time>2026-03-28T12:41:23.999Z</time></trkpt><trkpt lat="44.16582119514746" lon="9.997582974367809"><ele>448.0</ele><time>2026-03-28T12:41:25.999Z</time></trkpt><trkpt lat="44.16575338490224" lon="9.99767195256274"><ele>448.00000000000006</ele><time>2026-03-28T12:41:29.999Z</time></trkpt><trkpt lat="44.16576051033545" lon="9.997768555752433"><ele>448.0</ele><time>2026-03-28T12:41:31.999Z</time></trkpt><trkpt lat="44.165724989090904" lon="9.997888582951157"><ele>452.6666666666667</ele><time>2026-03-28T12:41:34.999Z</time></trkpt><trkpt lat="44.165694981900124" lon="9.998014031099622"><ele>457.33333333333337</ele><time>2026-03-28T12:41:37Z</time></trkpt><trkpt lat="44.165638721589" lon="9.998155213359434"><ele>462.0</ele><time>2026-03-28T12:41:39Z</time></trkpt><trkpt lat="44.16564283825672" lon="9.998255971319615"><ele>466.66666666666663</ele><time>2026-03-28T12:41:41Z</time></trkpt><trkpt lat="44.165590126873916" lon="9.998319554937959"><ele>471.3333333333333</ele><time>2026-03-28T12:41:44Z</time></trkpt><trkpt lat="44.16554140615879" lon="9.998400702358769"><ele>476.0</ele><time>2026-03-28T12:41:47Z</time></trkpt><trkpt lat="44.16547316458017" lon="9.998471220749703"><ele>475.99999999999994</ele><time>2026-03-28T12:41:50Z</time></trkpt><trkpt lat="44.1654174063442" lon="9.998540010006018"><ele>476.0</ele><time>2026-03-28T12:41:52Z</time></trkpt><trkpt lat="44.16535985452979" lon="9.998627972808402"><ele>476.0</ele><time>2026-03-28T12:41:54Z</time></trkpt><trkpt lat="44.16533688095112" lon="9.998711064213998"><ele>476.0</ele><time>2026-03-28T12:41:57Z</time></trkpt><trkpt lat="44.16532362761798" lon="9.998827255208187"><ele>475.99999999999994</ele><time>2026-03-28T12:41:59Z</time></trkpt><trkpt lat="44.16533686801986" lon="9.998983227217847"><ele>476.0</ele><time>2026-03-28T12:42:02Z</time></trkpt><trkpt lat="44.16531437762727" lon="9.999067739446394"><ele>475.99999999999994</ele><time>2026-03-28T12:42:06Z</time></trkpt><trkpt lat="44.16535133463306" lon="9.998990100294531"><ele>476.0</ele><time>2026-03-28T12:42:22Z</time></trkpt><trkpt lat="44.16530755661623" lon="9.998916047667718"><ele>476.0</ele><time>2026-03-28T12:42:34Z</time></trkpt><trkpt lat="44.1653624409177" lon="9.998856025464347"><ele>476.0</ele><time>2026-03-28T12:42:57Z</time></trkpt><trkpt lat="44.16544378516696" lon="9.998848365740036"><ele>475.99999999999994</ele><time>2026-03-28T12:42:59Z</time></trkpt><trkpt lat="44.16551371360739" lon="9.998890564900373"><ele>476.0</ele><time>2026-03-28T12:43:01Z</time></trkpt><trkpt lat="44.16561195876252" lon="9.99891639654024"><ele>475.99999999999994</ele><time>2026-03-28T12:43:04Z</time></trkpt><trkpt lat="44.165666186429895" lon="9.99897852631311"><ele>476.0</ele><time>2026-03-28T12:43:07Z</time></trkpt><trkpt lat="44.16572571434348" lon="9.99903997831842"><ele>476.0</ele><time>2026-03-28T12:43:11Z</time></trkpt><trkpt lat="44.16580856117684" lon="9.999066809466495"><ele>476.0</ele><time>2026-03-28T12:43:22Z</time></trkpt><trkpt lat="44.16592163973549" lon="9.999032590584864"><ele>475.99999999999994</ele><time>2026-03-28T12:43:24Z</time></trkpt><trkpt lat="44.16598164012753" lon="9.998982538630967"><ele>476.0</ele><time>2026-03-28T12:43:26Z</time></trkpt><trkpt lat="44.1660626823634" lon="9.998925451487436"><ele>475.99999999999994</ele><time>2026-03-28T12:43:29Z</time></trkpt><trkpt lat="44.1661322361079" lon="9.998877712640835"><ele>476.0</ele><time>2026-03-28T12:43:30.999Z</time></trkpt><trkpt lat="44.16616692003693" lon="9.998984260958839"><ele>476.0</ele><time>2026-03-28T12:43:34.999Z</time></trkpt><trkpt lat="44.166151283692415" lon="9.99907125688361"><ele>476.0</ele><time>2026-03-28T12:43:35.999Z</time></trkpt><trkpt lat="44.16612908433242" lon="9.99917438537406"><ele>475.99999999999994</ele><time>2026-03-28T12:43:37.999Z</time></trkpt><trkpt lat="44.16615011219577" lon="9.999257951421617"><ele>476.0</ele><time>2026-03-28T12:43:39.999Z</time></trkpt><trkpt lat="44.16613168724591" lon="9.999374095614506"><ele>476.0</ele><time>2026-03-28T12:43:42Z</time></trkpt><trkpt lat="44.16609073283551" lon="9.999468456614405"><ele>476.0</ele><time>2026-03-28T12:43:44Z</time></trkpt><trkpt lat="44.166083462034415" lon="9.999584925721091"><ele>476.0</ele><time>2026-03-28T12:43:46Z</time></trkpt><trkpt lat="44.16603536571061" lon="9.999729482813558"><ele>476.0</ele><time>2026-03-28T12:43:48Z</time></trkpt><trkpt lat="44.16596254958392" lon="9.999866319573345"><ele>476.0</ele><time>2026-03-28T12:43:51Z</time></trkpt><trkpt lat="44.1659326069375" lon="9.999951576475633"><ele>476.0</ele><time>2026-03-28T12:43:53Z</time></trkpt><trkpt lat="44.165852356609925" lon="9.999948035842685"><ele>476.0</ele><time>2026-03-28T12:43:55Z</time></trkpt><trkpt lat="44.165797856707016" lon="9.999895201959305"><ele>476.0</ele><time>2026-03-28T12:43:59Z</time></trkpt><trkpt lat="44.16576411435024" lon="9.999973389385508"><ele>476.0</ele><time>2026-03-28T12:44:07Z</time></trkpt><trkpt lat="44.165790395559256" lon="10.00005378100291"><ele>476.0</ele><time>2026-03-28T12:44:37Z</time></trkpt><trkpt lat="44.165780418658414" lon="10.000141279960262"><ele>476.0</ele><time>2026-03-28T12:44:41Z</time></trkpt><trkpt lat="44.16574413783153" lon="10.000213702239243"><ele>476.0</ele><time>2026-03-28T12:44:43Z</time></trkpt><trkpt lat="44.165701265066915" lon="10.000307599696082"><ele>475.8</ele><time>2026-03-28T12:44:45Z</time></trkpt><trkpt lat="44.1656425638899" lon="10.000430466241452"><ele>475.6</ele><time>2026-03-28T12:44:47Z</time></trkpt><trkpt lat="44.16556924436187" lon="10.000467150825736"><ele>475.4</ele><time>2026-03-28T12:44:49Z</time></trkpt><trkpt lat="44.1654850728065" lon="10.00038837469739"><ele>475.2</ele><time>2026-03-28T12:44:51Z</time></trkpt><trkpt lat="44.1654040905765" lon="10.000312250014154"><ele>475.0</ele><time>2026-03-28T12:44:53Z</time></trkpt><trkpt lat="44.16531815335873" lon="10.000234142065974"><ele>475.0</ele><time>2026-03-28T12:44:55Z</time></trkpt><trkpt lat="44.1652219262414" lon="10.000141539798001"><ele>475.0</ele><time>2026-03-28T12:44:57Z</time></trkpt><trkpt lat="44.16512550781904" lon="10.000061973746472"><ele>475.0</ele><time>2026-03-28T12:44:59Z</time></trkpt><trkpt lat="44.16504393781539" lon="9.999937603389847"><ele>475.0</ele><time>2026-03-28T12:45:01Z</time></trkpt><trkpt lat="44.16492550117729" lon="9.999878995423892"><ele>477.50000000000006</ele><time>2026-03-28T12:45:03Z</time></trkpt><trkpt lat="44.16485911170774" lon="9.999867232194122"><ele>480.0</ele><time>2026-03-28T12:45:04Z</time></trkpt><trkpt lat="44.16479456816975" lon="9.99986166014514"><ele>482.5</ele><time>2026-03-28T12:45:05Z</time></trkpt><trkpt lat="44.164730523193214" lon="9.999861061336361"><ele>485.0</ele><time>2026-03-28T12:45:06Z</time></trkpt><trkpt lat="44.16461053988988" lon="9.999867289495999"><ele>487.50000000000006</ele><time>2026-03-28T12:45:08Z</time></trkpt><trkpt lat="44.16450293433135" lon="9.99988397209949"><ele>490.0</ele><time>2026-03-28T12:45:10Z</time></trkpt><trkpt lat="44.164407086217665" lon="9.999875445581933"><ele>490.0</ele><time>2026-03-28T12:45:12Z</time></trkpt><trkpt lat="44.164329923375846" lon="9.999857603802868"><ele>490.0</ele><time>2026-03-28T12:45:14Z</time></trkpt><trkpt lat="44.16427380597421" lon="9.999930636673774"><ele>490.0</ele><time>2026-03-28T12:45:40.999Z</time></trkpt><trkpt lat="44.1642350980724" lon="9.999855622695994"><ele>490.0</ele><time>2026-03-28T12:46:26Z</time></trkpt><trkpt lat="44.16424773701922" lon="9.999761242568468"><ele>490.0</ele><time>2026-03-28T12:46:27Z</time></trkpt><trkpt lat="44.16424651657082" lon="9.999670894996086"><ele>490.0</ele><time>2026-03-28T12:46:28Z</time></trkpt><trkpt lat="44.16420099463548" lon="9.999608927606301"><ele>490.0</ele><time>2026-03-28T12:46:29Z</time></trkpt><trkpt lat="44.16418702677889" lon="9.99952152659124"><ele>490.00000000000006</ele><time>2026-03-28T12:46:30Z</time></trkpt><trkpt lat="44.16414903250235" lon="9.999443633529793"><ele>490.0</ele><time>2026-03-28T12:46:31Z</time></trkpt><trkpt lat="44.164105595742534" lon="9.999371049628493"><ele>490.0</ele><time>2026-03-28T12:46:32Z</time></trkpt><trkpt lat="44.164063720292724" lon="9.99930293810239"><ele>490.0</ele><time>2026-03-28T12:46:33Z</time></trkpt><trkpt lat="44.16402146838257" lon="9.999237312090152"><ele>490.00000000000006</ele><time>2026-03-28T12:46:34Z</time></trkpt><trkpt lat="44.16393410175139" lon="9.999131553682789"><ele>490.0</ele><time>2026-03-28T12:46:36Z</time></trkpt><trkpt lat="44.163903376486964" lon="9.999038899686964"><ele>498.1666666666667</ele><time>2026-03-28T12:46:37Z</time></trkpt><trkpt lat="44.16386115162715" lon="9.998949967015124"><ele>506.33333333333337</ele><time>2026-03-28T12:46:38Z</time></trkpt><trkpt lat="44.16382166522306" lon="9.99887189140503"><ele>514.5</ele><time>2026-03-28T12:46:39Z</time></trkpt><trkpt lat="44.1637227963873" lon="9.998887440163335"><ele>522.6666666666666</ele><time>2026-03-28T12:46:41Z</time></trkpt><trkpt lat="44.16367677427414" lon="9.9989804258242"><ele>530.8333333333333</ele><time>2026-03-28T12:46:42Z</time></trkpt><trkpt lat="44.16370200321926" lon="9.999094439539078"><ele>539.0</ele><time>2026-03-28T12:46:43Z</time></trkpt><trkpt lat="44.16377486391202" lon="9.999162482073876"><ele>535.6666666666666</ele><time>2026-03-28T12:46:44Z</time></trkpt><trkpt lat="44.16383831742963" lon="9.999215596576898"><ele>532.3333333333333</ele><time>2026-03-28T12:46:45Z</time></trkpt><trkpt lat="44.1638688990555" lon="9.999308359897462"><ele>529.0</ele><time>2026-03-28T12:46:46Z</time></trkpt><trkpt lat="44.163909079809756" lon="9.999381442914052"><ele>525.6666666666666</ele><time>2026-03-28T12:46:47Z</time></trkpt><trkpt lat="44.16394330818718" lon="9.999460575438551"><ele>522.3333333333334</ele><time>2026-03-28T12:46:48Z</time></trkpt><trkpt lat="44.16397791418669" lon="9.999550421279523"><ele>519.0</ele><time>2026-03-28T12:46:49Z</time></trkpt><trkpt lat="44.16396150631098" lon="9.999721539198129"><ele>519.0</ele><time>2026-03-28T12:46:51Z</time></trkpt><trkpt lat="44.163912204431696" lon="9.999788876089402"><ele>519.0</ele><time>2026-03-28T12:46:52Z</time></trkpt><trkpt lat="44.16386338233423" lon="9.999846081950672"><ele>519.0</ele><time>2026-03-28T12:46:53Z</time></trkpt><trkpt lat="44.16381499886344" lon="9.999904476470162"><ele>519.0</ele><time>2026-03-28T12:46:54Z</time></trkpt><trkpt lat="44.163761234783124" lon="9.999967658300877"><ele>519.0</ele><time>2026-03-28T12:46:55Z</time></trkpt><trkpt lat="44.16369845957702" lon="10.000011023707113"><ele>519.0</ele><time>2026-03-28T12:46:56Z</time></trkpt><trkpt lat="44.16362707685703" lon="10.000041993896383"><ele>519.0</ele><time>2026-03-28T12:46:57Z</time></trkpt><trkpt lat="44.163561809722026" lon="10.000081344542112"><ele>519.0</ele><time>2026-03-28T12:46:58Z</time></trkpt><trkpt lat="44.16349548722523" lon="10.000093628074655"><ele>519.0</ele><time>2026-03-28T12:46:59Z</time></trkpt><trkpt lat="44.163428925256845" lon="10.000103844032514"><ele>519.0</ele><time>2026-03-28T12:47:00Z</time></trkpt><trkpt lat="44.16335853934069" lon="10.00010486063249"><ele>519.0</ele><time>2026-03-28T12:47:01Z</time></trkpt><trkpt lat="44.16328507699677" lon="10.00009066100983"><ele>519.0</ele><time>2026-03-28T12:47:02Z</time></trkpt><trkpt lat="44.163217733110365" lon="10.000055431292283"><ele>519.0</ele><time>2026-03-28T12:47:03Z</time></trkpt><trkpt lat="44.16315046353006" lon="10.000013954752157"><ele>519.0</ele><time>2026-03-28T12:47:04Z</time></trkpt><trkpt lat="44.16308537135209" lon="9.999963455188059"><ele>516.6666666666666</ele><time>2026-03-28T12:47:05Z</time></trkpt><trkpt lat="44.16301387280174" lon="9.999896377823017"><ele>514.3333333333334</ele><time>2026-03-28T12:47:06Z</time></trkpt><trkpt lat="44.16294724599829" lon="9.9998282774996"><ele>512.0</ele><time>2026-03-28T12:47:07Z</time></trkpt><trkpt lat="44.162877841250214" lon="9.999760795931802"><ele>509.6666666666667</ele><time>2026-03-28T12:47:08Z</time></trkpt><trkpt lat="44.162793667499116" lon="9.999706486302719"><ele>507.33333333333337</ele><time>2026-03-28T12:47:09Z</time></trkpt><trkpt lat="44.162705419748136" lon="9.99965107537434"><ele>505.0</ele><time>2026-03-28T12:47:10Z</time></trkpt><trkpt lat="44.1626184027495" lon="9.99958062459184"><ele>505.0</ele><time>2026-03-28T12:47:11Z</time></trkpt><trkpt lat="44.16254659435184" lon="9.999479328696594"><ele>505.0</ele><time>2026-03-28T12:47:12Z</time></trkpt><trkpt lat="44.162455119784305" lon="9.99941169696085"><ele>505.0</ele><time>2026-03-28T12:47:13Z</time></trkpt><trkpt lat="44.16235415200798" lon="9.999374896152958"><ele>505.0</ele><time>2026-03-28T12:47:14Z</time></trkpt><trkpt lat="44.16225184334631" lon="9.999384844061952"><ele>505.0</ele><time>2026-03-28T12:47:15Z</time></trkpt><trkpt lat="44.16214717909422" lon="9.999368141901806"><ele>503.4</ele><time>2026-03-28T12:47:16Z</time></trkpt><trkpt lat="44.16204392816458" lon="9.999371006353638"><ele>501.8</ele><time>2026-03-28T12:47:17Z</time></trkpt><trkpt lat="44.16194419852921" lon="9.999354162767272"><ele>500.20000000000005</ele><time>2026-03-28T12:47:18Z</time></trkpt><trkpt lat="44.16184772355307" lon="9.999336898404712"><ele>498.6</ele><time>2026-03-28T12:47:19Z</time></trkpt><trkpt lat="44.161753947982845" lon="9.999301752543415"><ele>497.0</ele><time>2026-03-28T12:47:20Z</time></trkpt><trkpt lat="44.16168168119058" lon="9.99921785731568"><ele>496.99999999999994</ele><time>2026-03-28T12:47:21Z</time></trkpt><trkpt lat="44.16160630149275" lon="9.999167937686439"><ele>497.0</ele><time>2026-03-28T12:47:22Z</time></trkpt><trkpt lat="44.16152418173926" lon="9.999137267770037"><ele>497.0</ele><time>2026-03-28T12:47:23Z</time></trkpt><trkpt lat="44.161446137662985" lon="9.999080331261517"><ele>497.0</ele><time>2026-03-28T12:47:24Z</time></trkpt><trkpt lat="44.161373753298435" lon="9.99902004407085"><ele>496.99999999999994</ele><time>2026-03-28T12:47:25Z</time></trkpt><trkpt lat="44.161288622790835" lon="9.998970347714234"><ele>497.0</ele><time>2026-03-28T12:47:26Z</time></trkpt><trkpt lat="44.1612051184039" lon="9.99891177453824"><ele>502.8333333333333</ele><time>2026-03-28T12:47:27Z</time></trkpt><trkpt lat="44.16112089741345" lon="9.998864550350872"><ele>508.66666666666663</ele><time>2026-03-28T12:47:28Z</time></trkpt><trkpt lat="44.16105806256884" lon="9.998777208387185"><ele>514.5</ele><time>2026-03-28T12:47:29Z</time></trkpt><trkpt lat="44.16098821136506" lon="9.998710030682219"><ele>520.3333333333334</ele><time>2026-03-28T12:47:30Z</time></trkpt><trkpt lat="44.16091112756092" lon="9.998656324672337"><ele>526.1666666666667</ele><time>2026-03-28T12:47:31Z</time></trkpt><trkpt lat="44.160832478019074" lon="9.998596846043412"><ele>532.0</ele><time>2026-03-28T12:47:32Z</time></trkpt><trkpt lat="44.16075844084279" lon="9.998518406023509"><ele>534.2</ele><time>2026-03-28T12:47:33Z</time></trkpt><trkpt lat="44.16067049009793" lon="9.998474155507267"><ele>536.4000000000001</ele><time>2026-03-28T12:47:34Z</time></trkpt><trkpt lat="44.16057878442878" lon="9.998416405627735"><ele>538.5999999999999</ele><time>2026-03-28T12:47:35Z</time></trkpt><trkpt lat="44.160483317186525" lon="9.99835651123575"><ele>540.8</ele><time>2026-03-28T12:47:36Z</time></trkpt><trkpt lat="44.16038611479719" lon="9.998304970655862"><ele>543.0</ele><time>2026-03-28T12:47:37Z</time></trkpt><trkpt lat="44.16028404765788" lon="9.998240747272343"><ele>543.0</ele><time>2026-03-28T12:47:38Z</time></trkpt><trkpt lat="44.160197873109546" lon="9.998188600704337"><ele>543.0</ele><time>2026-03-28T12:47:39Z</time></trkpt><trkpt lat="44.160102299865486" lon="9.998167777492736"><ele>543.0</ele><time>2026-03-28T12:47:39.999Z</time></trkpt><trkpt lat="44.16001535911856" lon="9.998200519719404"><ele>543.0</ele><time>2026-03-28T12:47:40.999Z</time></trkpt><trkpt lat="44.15994705096868" lon="9.998293831054596"><ele>543.0</ele><time>2026-03-28T12:47:41.999Z</time></trkpt><trkpt lat="44.159910306156725" lon="9.99840595465488"><ele>545.3333333333334</ele><time>2026-03-28T12:47:42.999Z</time></trkpt><trkpt lat="44.15985378208556" lon="9.998513711185254"><ele>547.6666666666666</ele><time>2026-03-28T12:47:43.999Z</time></trkpt><trkpt lat="44.15980666820697" lon="9.998603379239691"><ele>550.0</ele><time>2026-03-28T12:47:44.999Z</time></trkpt><trkpt lat="44.159764210992016" lon="9.998681082302376"><ele>552.3333333333333</ele><time>2026-03-28T12:47:45.999Z</time></trkpt><trkpt lat="44.15971048005158" lon="9.998765373939518"><ele>554.6666666666666</ele><time>2026-03-28T12:47:46.999Z</time></trkpt><trkpt lat="44.15964172605718" lon="9.998863987316062"><ele>557.0</ele><time>2026-03-28T12:47:47.999Z</time></trkpt><trkpt lat="44.15957183777887" lon="9.99896917315197"><ele>557.0</ele><time>2026-03-28T12:47:48.999Z</time></trkpt><trkpt lat="44.159489272378615" lon="9.999068593905335"><ele>557.0</ele><time>2026-03-28T12:47:49.999Z</time></trkpt><trkpt lat="44.159391855462694" lon="9.999148898425409"><ele>557.0</ele><time>2026-03-28T12:47:50.999Z</time></trkpt><trkpt lat="44.15929570417468" lon="9.999237515695105"><ele>557.0</ele><time>2026-03-28T12:47:51.999Z</time></trkpt><trkpt lat="44.159226378625576" lon="9.99932784017443"><ele>557.0</ele><time>2026-03-28T12:47:52.999Z</time></trkpt><trkpt lat="44.15915399495814" lon="9.999397035717156"><ele>557.6</ele><time>2026-03-28T12:47:54Z</time></trkpt><trkpt lat="44.15915996926603" lon="9.999548558511753"><ele>558.2</ele><time>2026-03-28T12:47:55Z</time></trkpt><trkpt lat="44.15919068099939" lon="9.999684533743809"><ele>558.8</ele><time>2026-03-28T12:47:56Z</time></trkpt><trkpt lat="44.15922453360928" lon="9.999817967637608"><ele>559.4</ele><time>2026-03-28T12:47:57Z</time></trkpt><trkpt lat="44.15924682518931" lon="9.99995513305166"><ele>560.0</ele><time>2026-03-28T12:47:58Z</time></trkpt><trkpt lat="44.15925956666349" lon="10.000088833345178"><ele>560.0</ele><time>2026-03-28T12:47:59Z</time></trkpt><trkpt lat="44.15929770318527" lon="10.000229426462075"><ele>560.0</ele><time>2026-03-28T12:48:00Z</time></trkpt><trkpt lat="44.15932662724374" lon="10.00037936920322"><ele>560.0</ele><time>2026-03-28T12:48:01Z</time></trkpt><trkpt lat="44.159361140488166" lon="10.000523287218607"><ele>560.0</ele><time>2026-03-28T12:48:02Z</time></trkpt><trkpt lat="44.15939363412166" lon="10.000669399505709"><ele>560.0</ele><time>2026-03-28T12:48:03Z</time></trkpt><trkpt lat="44.15941598645997" lon="10.000824163107648"><ele>562.0</ele><time>2026-03-28T12:48:04Z</time></trkpt><trkpt lat="44.159434787381926" lon="10.000957309221816"><ele>564.0</ele><time>2026-03-28T12:48:05Z</time></trkpt><trkpt lat="44.159459769586185" lon="10.001096376589553"><ele>566.0</ele><time>2026-03-28T12:48:06Z</time></trkpt><trkpt lat="44.15948982300155" lon="10.001232679059768"><ele>568.0</ele><time>2026-03-28T12:48:07Z</time></trkpt><trkpt lat="44.15948574537829" lon="10.001367247263495"><ele>570.0</ele><time>2026-03-28T12:48:08Z</time></trkpt><trkpt lat="44.15942420495707" lon="10.00147904101369"><ele>570.0</ele><time>2026-03-28T12:48:09Z</time></trkpt><trkpt lat="44.15937155660349" lon="10.001607447832118"><ele>570.0</ele><time>2026-03-28T12:48:10Z</time></trkpt><trkpt lat="44.15929869814599" lon="10.001706879840178"><ele>570.0</ele><time>2026-03-28T12:48:11Z</time></trkpt><trkpt lat="44.159210084106505" lon="10.00178901479718"><ele>570.0</ele><time>2026-03-28T12:48:12Z</time></trkpt><trkpt lat="44.15910114638914" lon="10.001793013773488"><ele>570.0</ele><time>2026-03-28T12:48:13Z</time></trkpt><trkpt lat="44.15898919109605" lon="10.001824477018795"><ele>573.25</ele><time>2026-03-28T12:48:14Z</time></trkpt><trkpt lat="44.15887096264343" lon="10.001829888934273"><ele>576.5</ele><time>2026-03-28T12:48:15Z</time></trkpt><trkpt lat="44.15875307548639" lon="10.001834872518648"><ele>579.75</ele><time>2026-03-28T12:48:16Z</time></trkpt><trkpt lat="44.15863368413029" lon="10.001860392245769"><ele>583.0</ele><time>2026-03-28T12:48:17Z</time></trkpt><trkpt lat="44.15852916237153" lon="10.00189974574224"><ele>583.0</ele><time>2026-03-28T12:48:18Z</time></trkpt><trkpt lat="44.15841528190237" lon="10.001922818292925"><ele>583.0</ele><time>2026-03-28T12:48:19Z</time></trkpt><trkpt lat="44.158317874375236" lon="10.002008661542773"><ele>583.0</ele><time>2026-03-28T12:48:20Z</time></trkpt><trkpt lat="44.15823916866981" lon="10.002099538084979"><ele>583.0</ele><time>2026-03-28T12:48:21Z</time></trkpt><trkpt lat="44.15817837988054" lon="10.00222323098898"><ele>583.0</ele><time>2026-03-28T12:48:22Z</time></trkpt><trkpt lat="44.15812365209" lon="10.002348865495419"><ele>582.4</ele><time>2026-03-28T12:48:23Z</time></trkpt><trkpt lat="44.15807410921271" lon="10.002479353395408"><ele>581.8</ele><time>2026-03-28T12:48:24Z</time></trkpt><trkpt lat="44.15803509885988" lon="10.002609785894007"><ele>581.2</ele><time>2026-03-28T12:48:25Z</time></trkpt><trkpt lat="44.158014763515276" lon="10.002742534716552"><ele>580.6</ele><time>2026-03-28T12:48:26Z</time></trkpt><trkpt lat="44.15800466553622" lon="10.002890728622646"><ele>580.0</ele><time>2026-03-28T12:48:27Z</time></trkpt><trkpt lat="44.15800362841883" lon="10.003039110904995"><ele>580.0</ele><time>2026-03-28T12:48:28Z</time></trkpt><trkpt lat="44.1580036803018" lon="10.003184669968912"><ele>580.0</ele><time>2026-03-28T12:48:29Z</time></trkpt><trkpt lat="44.15798839838937" lon="10.003322492279953"><ele>580.0</ele><time>2026-03-28T12:48:30Z</time></trkpt><trkpt lat="44.15798385815182" lon="10.003449015147467"><ele>580.0</ele><time>2026-03-28T12:48:31Z</time></trkpt><trkpt lat="44.15797669129258" lon="10.003570242087466"><ele>580.0</ele><time>2026-03-28T12:48:32Z</time></trkpt><trkpt lat="44.157938140133815" lon="10.003677401094903"><ele>578.6</ele><time>2026-03-28T12:48:34Z</time></trkpt><trkpt lat="44.15784995781573" lon="10.003571155394743"><ele>577.2</ele><time>2026-03-28T12:48:36Z</time></trkpt><trkpt lat="44.15777690873689" lon="10.003526822958305"><ele>575.8</ele><time>2026-03-28T12:48:37Z</time></trkpt><trkpt lat="44.15771547766522" lon="10.003462496394588"><ele>574.4</ele><time>2026-03-28T12:48:38Z</time></trkpt><trkpt lat="44.15763926162887" lon="10.003410052920426"><ele>573.0</ele><time>2026-03-28T12:48:39Z</time></trkpt><trkpt lat="44.15754866664293" lon="10.003371135430553"><ele>573.0</ele><time>2026-03-28T12:48:40Z</time></trkpt><trkpt lat="44.15744597145665" lon="10.003353228812516"><ele>573.0</ele><time>2026-03-28T12:48:41Z</time></trkpt><trkpt lat="44.15733798589513" lon="10.003344527292782"><ele>573.0</ele><time>2026-03-28T12:48:42Z</time></trkpt><trkpt lat="44.15722320082902" lon="10.003325037092903"><ele>573.0</ele><time>2026-03-28T12:48:43Z</time></trkpt><trkpt lat="44.157104396479916" lon="10.003301821198551"><ele>573.0</ele><time>2026-03-28T12:48:44Z</time></trkpt><trkpt lat="44.15698731948993" lon="10.003281345222879"><ele>565.0</ele><time>2026-03-28T12:48:45Z</time></trkpt><trkpt lat="44.15688754582766" lon="10.003267979252303"><ele>565.0</ele><time>2026-03-28T12:48:46Z</time></trkpt><trkpt lat="44.15680637518687" lon="10.003258281476235"><ele>565.0</ele><time>2026-03-28T12:48:47Z</time></trkpt><trkpt lat="44.15673442996136" lon="10.003224040087053"><ele>565.0</ele><time>2026-03-28T12:48:48Z</time></trkpt><trkpt lat="44.156569673077975" lon="10.003290654523827"><ele>565.0</ele><time>2026-03-28T12:49:29Z</time></trkpt></trkseg></trk></gpx>